Observation data for Amarillo 15 North Northwest on 01/16/2019      Previous  Date  Next       Current Mesonet Observations  Soil Data  Daily Summary Page  Observations in Plain Language
KAM3 160600Z 23006KT 04/M01 A3007 RMK A01 T00351006  RH  075%=      5-min Rain = 0
KAM3 160601Z 22006KT 03/M01 A3007 RMK A01 T00341006  RH  075%=      5-min Rain = 0
KAM3 160602Z 22007KT 03/M01 A3007 RMK A01 T00341005  RH  075%=      5-min Rain = 0
KAM3 160603Z 23006KT 03/M01 A3007 RMK A01 T00341005  RH  075%=      5-min Rain = 0
KAM3 160604Z 23006KT 03/M01 A3007 RMK A01 T00341005  RH  075%=      5-min Rain = 0
KAM3 160605Z 24005KT 03/M01 A3007 RMK A01 T00341005  RH  075%=      5-min Rain = 0
KAM3 160606Z 24006KT 03/M01 A3007 RMK A01 T00341006  RH  075%=      5-min Rain = 0
KAM3 160607Z 24005KT 03/M01 A3007 RMK A01 T00331007  RH  075%=      5-min Rain = 0
KAM3 160608Z 25005KT 03/M01 A3007 RMK A01 T00311008  RH  076%=      5-min Rain = 0
KAM3 160609Z 25004KT 03/M01 A3007 RMK A01 T00291009  RH  076%=      5-min Rain = 0
KAM3 160610Z 24005KT 03/M01 A3007 RMK A01 T00271010  RH  076%=      5-min Rain = 0
KAM3 160611Z 24005KT 03/M01 A3007 RMK A01 T00261011  RH  077%=      5-min Rain = 0
KAM3 160612Z 25006KT 02/M01 A3007 RMK A01 T00241011  RH  077%=      5-min Rain = 0
KAM3 160613Z 25006KT 02/M01 A3007 RMK A01 T00231011  RH  078%=      5-min Rain = 0
KAM3 160614Z 25007KT 02/M01 A3007 RMK A01 T00231011  RH  078%=      5-min Rain = 0
KAM3 160615Z 25007KT 02/M01 A3007 RMK A01 T00231011  RH  078%=      5-min Rain = 0
KAM3 160616Z 25007KT 02/M01 A3007 RMK A01 T00221011  RH  078%=      5-min Rain = 0
KAM3 160617Z 25006KT 02/M01 A3007 RMK A01 T00221011  RH  078%=      5-min Rain = 0
KAM3 160618Z 25005KT 02/M01 A3007 RMK A01 T00221012  RH  078%=      5-min Rain = 0
KAM3 160619Z 25006KT 02/M01 A3007 RMK A01 T00211013  RH  078%=      5-min Rain = 0
KAM3 160620Z 26006KT 02/M01 A3007 RMK A01 T00211012  RH  079%=      5-min Rain = 0
KAM3 160621Z 25006KT 02/M01 A3007 RMK A01 T00211012  RH  079%=      5-min Rain = 0
KAM3 160622Z 26007KT 02/M01 A3007 RMK A01 T00211013  RH  078%=      5-min Rain = 0
KAM3 160623Z 26006KT 02/M01 A3007 RMK A01 T00211013  RH  078%=      5-min Rain = 0
KAM3 160624Z 26007KT 02/M01 A3007 RMK A01 T00221013  RH  077%=      5-min Rain = 0
KAM3 160625Z 26006KT 02/M01 A3007 RMK A01 T00221014  RH  077%=      5-min Rain = 0
KAM3 160626Z 26006KT 02/M01 A3007 RMK A01 T00241014  RH  076%=      5-min Rain = 0
KAM3 160627Z 27006KT 03/M01 A3007 RMK A01 T00261013  RH  076%=      5-min Rain = 0
KAM3 160628Z 27006KT 03/M01 A3007 RMK A01 T00281013  RH  074%=      5-min Rain = 0
KAM3 160629Z 27007KT 03/M01 A3007 RMK A01 T00291013  RH  073%=      5-min Rain = 0
KAM3 160630Z 27006KT 03/M01 A3007 RMK A01 T00311013  RH  073%=      5-min Rain = 0
KAM3 160631Z 27006KT 03/M01 A3007 RMK A01 T00321014  RH  072%=      5-min Rain = 0
KAM3 160632Z 27006KT 03/M02 A3006 RMK A01 T00321015  RH  072%=      5-min Rain = 0
KAM3 160633Z 27006KT 03/M02 A3006 RMK A01 T00321015  RH  071%=      5-min Rain = 0
KAM3 160634Z 26006KT 03/M02 A3007 RMK A01 T00311015  RH  071%=      5-min Rain = 0
KAM3 160635Z 25007KT 03/M02 A3007 RMK A01 T00291017  RH  072%=      5-min Rain = 0
KAM3 160636Z 25006KT 03/M02 A3007 RMK A01 T00251018  RH  073%=      5-min Rain = 0
KAM3 160637Z 23005KT 02/M02 A3007 RMK A01 T00221018  RH  075%=      5-min Rain = 0
KAM3 160638Z 25004KT 02/M02 A3007 RMK A01 T00201018  RH  076%=      5-min Rain = 0
KAM3 160639Z 26004KT 02/M02 A3007 RMK A01 T00191016  RH  078%=      5-min Rain = 0
KAM3 160640Z 26004KT 02/M01 A3007 RMK A01 T00191014  RH  079%=      5-min Rain = 0
KAM3 160641Z 25004KT 02/M01 A3007 RMK A01 T00191014  RH  079%=      5-min Rain = 0
KAM3 160642Z 23004KT 02/M01 A3007 RMK A01 T00201013  RH  079%=      5-min Rain = 0
KAM3 160643Z 23004KT 02/M01 A3007 RMK A01 T00211013  RH  078%=      5-min Rain = 0
KAM3 160644Z 23004KT 02/M01 A3007 RMK A01 T00211013  RH  078%=      5-min Rain = 0
KAM3 160645Z 23003KT 02/M01 A3007 RMK A01 T00221012  RH  078%=      5-min Rain = 0
KAM3 160646Z 23003KT 02/M01 A3007 RMK A01 T00231011  RH  078%=      5-min Rain = 0
KAM3 160647Z 24004KT 02/M01 A3007 RMK A01 T00241009  RH  079%=      5-min Rain = 0
KAM3 160648Z 24004KT 03/M01 A3007 RMK A01 T00251009  RH  078%=      5-min Rain = 0
KAM3 160649Z 24004KT 03/M01 A3007 RMK A01 T00261009  RH  078%=      5-min Rain = 0
KAM3 160650Z 24004KT 03/M01 A3007 RMK A01 T00261008  RH  078%=      5-min Rain = 0
KAM3 160651Z 24004KT 03/M01 A3007 RMK A01 T00271008  RH  078%=      5-min Rain = 0
KAM3 160652Z 24004KT 03/M01 A3007 RMK A01 T00281007  RH  078%=      5-min Rain = 0
KAM3 160653Z 24004KT 03/M01 A3007 RMK A01 T00291006  RH  078%=      5-min Rain = 0
KAM3 160654Z 25004KT 03/M01 A3007 RMK A01 T00291007  RH  077%=      5-min Rain = 0
KAM3 160655Z 25004KT 03/M01 A3007 RMK A01 T00291006  RH  078%=      5-min Rain = 0
KAM3 160656Z 25004KT 03/M01 A3007 RMK A01 T00291006  RH  078%=      5-min Rain = 0
KAM3 160657Z 25004KT 03/M01 A3007 RMK A01 T00291005  RH  078%=      5-min Rain = 0
KAM3 160658Z 26004KT 03/M00 A3007 RMK A01 T00301004  RH  079%=      5-min Rain = 0
KAM3 160659Z 26004KT 03/M00 A3007 RMK A01 T00311002  RH  079%=      5-min Rain = 0
KAM3 160700Z 27003KT 03/M00 A3007 RMK A01 T00341001  RH  078%=      5-min Rain = 0
KAM3 160701Z 27003KT 04/M00 A3007 RMK A01 T00361002  RH  076%=      5-min Rain = 0
KAM3 160702Z 27003KT 04/M00 A3007 RMK A01 T00371002  RH  075%=      5-min Rain = 0
KAM3 160703Z 27003KT 04/M00 A3007 RMK A01 T00391003  RH  074%=      5-min Rain = 0
KAM3 160704Z 27003KT 04/M00 A3007 RMK A01 T00391003  RH  074%=      5-min Rain = 0
KAM3 160705Z 27003KT 04/M00 A3007 RMK A01 T00391004  RH  073%=      5-min Rain = 0
KAM3 160706Z 27003KT 04/M01 A3007 RMK A01 T00391005  RH  073%=      5-min Rain = 0
KAM3 160707Z 27003KT 04/M01 A3007 RMK A01 T00391005  RH  073%=      5-min Rain = 0
KAM3 160708Z 27003KT 04/M01 A3007 RMK A01 T00391006  RH  073%=      5-min Rain = 0
KAM3 160709Z 27003KT 04/M01 A3007 RMK A01 T00391005  RH  073%=      5-min Rain = 0
KAM3 160710Z 26003KT 04/M01 A3007 RMK A01 T00391005  RH  073%=      5-min Rain = 0
KAM3 160711Z 26003KT 04/M01 A3007 RMK A01 T00381005  RH  073%=      5-min Rain = 0
KAM3 160712Z 26003KT 04/M01 A3007 RMK A01 T00361006  RH  074%=      5-min Rain = 0
KAM3 160713Z 26003KT 04/M01 A3007 RMK A01 T00351006  RH  075%=      5-min Rain = 0
KAM3 160714Z 26003KT 03/M01 A3007 RMK A01 T00341006  RH  075%=      5-min Rain = 0
KAM3 160715Z 26003KT 03/M01 A3007 RMK A01 T00341006  RH  076%=      5-min Rain = 0
KAM3 160716Z 26003KT 03/M01 A3007 RMK A01 T00331006  RH  075%=      5-min Rain = 0
KAM3 160717Z 26003KT 03/M01 A3007 RMK A01 T00341007  RH  075%=      5-min Rain = 0
KAM3 160718Z 27002KT 03/M01 A3007 RMK A01 T00341007  RH  075%=      5-min Rain = 0
KAM3 160719Z 28003KT 03/M01 A3007 RMK A01 T00341007  RH  075%=      5-min Rain = 0
KAM3 160720Z 29002KT 03/M01 A3007 RMK A01 T00341007  RH  075%=      5-min Rain = 0
KAM3 160721Z 29002KT 03/M01 A3006 RMK A01 T00341007  RH  075%=      5-min Rain = 0
KAM3 160722Z 30003KT 04/M01 A3006 RMK A01 T00351007  RH  074%=      5-min Rain = 0
KAM3 160723Z 30002KT 04/M01 A3006 RMK A01 T00351006  RH  074%=      5-min Rain = 0
KAM3 160724Z 30002KT 04/M01 A3006 RMK A01 T00361006  RH  074%=      5-min Rain = 0
KAM3 160725Z 32002KT 04/M01 A3006 RMK A01 T00361007  RH  074%=      5-min Rain = 0
KAM3 160726Z 32003KT 04/M01 A3006 RMK A01 T00351007  RH  074%=      5-min Rain = 0
KAM3 160727Z 33003KT 04/M01 A3006 RMK A01 T00351008  RH  074%=      5-min Rain = 0
KAM3 160728Z 33003KT 03/M01 A3006 RMK A01 T00341008  RH  074%=      5-min Rain = 0
KAM3 160729Z 33003KT 03/M01 A3006 RMK A01 T00341008  RH  074%=      5-min Rain = 0
KAM3 160730Z 33003KT 03/M01 A3006 RMK A01 T00331008  RH  074%=      5-min Rain = 0
KAM3 160731Z 33003KT 03/M01 A3006 RMK A01 T00331008  RH  074%=      5-min Rain = 0
KAM3 160732Z 34003KT 03/M01 A3006 RMK A01 T00321009  RH  075%=      5-min Rain = 0
KAM3 160733Z 34003KT 03/M01 A3006 RMK A01 T00311009  RH  075%=      5-min Rain = 0
KAM3 160734Z 34003KT 03/M01 A3006 RMK A01 T00301010  RH  075%=      5-min Rain = 0
KAM3 160735Z 34003KT 03/M01 A3006 RMK A01 T00291011  RH  075%=      5-min Rain = 0
KAM3 160736Z 34003KT 03/M01 A3006 RMK A01 T00271011  RH  076%=      5-min Rain = 0
KAM3 160737Z 34003KT 03/M01 A3006 RMK A01 T00261011  RH  077%=      5-min Rain = 0
KAM3 160738Z 34003KT 03/M01 A3006 RMK A01 T00261010  RH  077%=      5-min Rain = 0
KAM3 160739Z 35003KT 03/M01 A3006 RMK A01 T00251010  RH  078%=      5-min Rain = 0
KAM3 160740Z 35003KT 02/M01 A3006 RMK A01 T00241011  RH  077%=      5-min Rain = 0
KAM3 160741Z 35003KT 02/M01 A3005 RMK A01 T00241012  RH  077%=      5-min Rain = 0
KAM3 160742Z 35002KT 02/M01 A3005 RMK A01 T00231013  RH  077%=      5-min Rain = 0
KAM3 160743Z 35002KT 02/M01 A3005 RMK A01 T00221014  RH  077%=      5-min Rain = 0
KAM3 160744Z 35002KT 02/M01 A3005 RMK A01 T00221014  RH  077%=      5-min Rain = 0
KAM3 160745Z 35002KT 02/M01 A3005 RMK A01 T00231014  RH  076%=      5-min Rain = 0
KAM3 160746Z 35002KT 02/M02 A3005 RMK A01 T00231015  RH  076%=      5-min Rain = 0
KAM3 160747Z 35001KT 02/M02 A3005 RMK A01 T00241015  RH  076%=      5-min Rain = 0
KAM3 160748Z 35001KT 02/M02 A3005 RMK A01 T00241015  RH  075%=      5-min Rain = 0
KAM3 160749Z 35001KT 02/M02 A3005 RMK A01 T00241015  RH  075%=      5-min Rain = 0
KAM3 160750Z 35002KT 02/M02 A3005 RMK A01 T00241015  RH  075%=      5-min Rain = 0
KAM3 160751Z 34002KT 03/M02 A3005 RMK A01 T00251015  RH  075%=      5-min Rain = 0
KAM3 160752Z 34002KT 03/M02 A3005 RMK A01 T00251015  RH  075%=      5-min Rain = 0
KAM3 160753Z 34001KT 03/M02 A3005 RMK A01 T00251015  RH  075%=      5-min Rain = 0
KAM3 160754Z 34001KT 03/M02 A3005 RMK A01 T00251015  RH  075%=      5-min Rain = 0
KAM3 160755Z 33002KT 03/M02 A3005 RMK A01 T00261015  RH  075%=      5-min Rain = 0
KAM3 160756Z 33002KT 03/M02 A3005 RMK A01 T00261015  RH  074%=      5-min Rain = 0
KAM3 160757Z 33002KT 03/M02 A3005 RMK A01 T00261015  RH  074%=      5-min Rain = 0
KAM3 160758Z 33002KT 03/M02 A3005 RMK A01 T00271015  RH  074%=      5-min Rain = 0
KAM3 160759Z 33001KT 03/M02 A3005 RMK A01 T00271015  RH  074%=      5-min Rain = 0
KAM3 160800Z 33001KT 03/M02 A3005 RMK A01 T00271015  RH  074%=      5-min Rain = 0
KAM3 160801Z 33001KT 03/M02 A3006 RMK A01 T00281015  RH  074%=      5-min Rain = 0
KAM3 160802Z 33001KT 03/M02 A3006 RMK A01 T00271015  RH  074%=      5-min Rain = 0
KAM3 160803Z 33001KT 03/M02 A3005 RMK A01 T00271015  RH  074%=      5-min Rain = 0
KAM3 160804Z 33001KT 03/M02 A3005 RMK A01 T00281015  RH  074%=      5-min Rain = 0
KAM3 160805Z 33001KT 03/M02 A3005 RMK A01 T00281015  RH  074%=      5-min Rain = 0
KAM3 160806Z 33001KT 03/M02 A3006 RMK A01 T00281015  RH  073%=      5-min Rain = 0
KAM3 160807Z 33000KT 03/M01 A3005 RMK A01 T00281014  RH  073%=      5-min Rain = 0
KAM3 160808Z 33000KT 03/M02 A3005 RMK A01 T00281015  RH  073%=      5-min Rain = 0
KAM3 160809Z 33001KT 03/M02 A3005 RMK A01 T00281015  RH  073%=      5-min Rain = 0
KAM3 160810Z 33001KT 03/M02 A3005 RMK A01 T00281015  RH  073%=      5-min Rain = 0
KAM3 160811Z 33000KT 03/M02 A3005 RMK A01 T00271016  RH  073%=      5-min Rain = 0
KAM3 160812Z 33001KT 03/M02 A3005 RMK A01 T00271016  RH  074%=      5-min Rain = 0
KAM3 160813Z 33001KT 03/M02 A3005 RMK A01 T00261016  RH  074%=      5-min Rain = 0
KAM3 160814Z 00000KT 03/M02 A3005 RMK A01 T00261015  RH  074%=      5-min Rain = 0
KAM3 160815Z 00000KT 03/M02 A3005 RMK A01 T00261015  RH  074%=      5-min Rain = 0
KAM3 160816Z 00000KT 03/M02 A3005 RMK A01 T00261015  RH  075%=      5-min Rain = 0
KAM3 160817Z 33000KT 03/M02 A3005 RMK A01 T00261015  RH  075%=      5-min Rain = 0
KAM3 160818Z 33001KT 03/M01 A3005 RMK A01 T00261014  RH  075%=      5-min Rain = 0
KAM3 160819Z 33000KT 03/M01 A3005 RMK A01 T00271013  RH  075%=      5-min Rain = 0
KAM3 160820Z 00000KT 03/M01 A3005 RMK A01 T00271013  RH  075%=      5-min Rain = 0
KAM3 160821Z 00000KT 03/M01 A3005 RMK A01 T00271013  RH  075%=      5-min Rain = 0
KAM3 160822Z 33000KT 03/M01 A3005 RMK A01 T00281011  RH  075%=      5-min Rain = 0
KAM3 160823Z 32001KT 03/M01 A3005 RMK A01 T00281011  RH  075%=      5-min Rain = 0
KAM3 160824Z 32000KT 03/M01 A3005 RMK A01 T00281012  RH  075%=      5-min Rain = 0
KAM3 160825Z 32001KT 03/M01 A3005 RMK A01 T00281012  RH  075%=      5-min Rain = 0
KAM3 160826Z 32001KT 03/M01 A3005 RMK A01 T00291011  RH  075%=      5-min Rain = 0
KAM3 160827Z 32001KT 03/M01 A3005 RMK A01 T00291010  RH  075%=      5-min Rain = 0
KAM3 160828Z 32000KT 03/M01 A3005 RMK A01 T00291011  RH  075%=      5-min Rain = 0
KAM3 160829Z 32000KT 03/M01 A3005 RMK A01 T00291009  RH  076%=      5-min Rain = 0
KAM3 160830Z 32001KT 03/M01 A3005 RMK A01 T00301008  RH  076%=      5-min Rain = 0
KAM3 160831Z 32001KT 03/M01 A3005 RMK A01 T00301008  RH  076%=      5-min Rain = 0
KAM3 160832Z 30001KT 03/M01 A3005 RMK A01 T00311007  RH  076%=      5-min Rain = 0
KAM3 160833Z 28002KT 03/M01 A3005 RMK A01 T00321006  RH  076%=      5-min Rain = 0
KAM3 160834Z 28001KT 03/M01 A3005 RMK A01 T00321006  RH  076%=      5-min Rain = 0
KAM3 160835Z 28002KT 03/M00 A3005 RMK A01 T00331004  RH  077%=      5-min Rain = 0
KAM3 160836Z 28002KT 04/M00 A3006 RMK A01 T00351002  RH  076%=      5-min Rain = 0
KAM3 160837Z 26003KT 04/M01 A3006 RMK A01 T00351006  RH  074%=      5-min Rain = 0
KAM3 160838Z 26003KT 03/M01 A3006 RMK A01 T00341008  RH  074%=      5-min Rain = 0
KAM3 160839Z 25002KT 03/M01 A3006 RMK A01 T00321009  RH  074%=      5-min Rain = 0
KAM3 160840Z 25003KT 03/M01 A3006 RMK A01 T00311009  RH  075%=      5-min Rain = 0
KAM3 160841Z 25004KT 03/M01 A3006 RMK A01 T00301010  RH  075%=      5-min Rain = 0
KAM3 160842Z 25004KT 03/M01 A3006 RMK A01 T00291010  RH  076%=      5-min Rain = 0
KAM3 160843Z 25004KT 03/M01 A3006 RMK A01 T00281011  RH  075%=      5-min Rain = 0
KAM3 160844Z 26003KT 03/M01 A3006 RMK A01 T00271012  RH  075%=      5-min Rain = 0
KAM3 160845Z 26003KT 03/M01 A3006 RMK A01 T00261011  RH  077%=      5-min Rain = 0
KAM3 160846Z 26003KT 03/M01 A3006 RMK A01 T00261010  RH  077%=      5-min Rain = 0
KAM3 160847Z 26003KT 03/M01 A3006 RMK A01 T00261010  RH  077%=      5-min Rain = 0
KAM3 160848Z 26003KT 03/M01 A3006 RMK A01 T00271010  RH  077%=      5-min Rain = 0
KAM3 160849Z 26003KT 03/M01 A3006 RMK A01 T00271010  RH  076%=      5-min Rain = 0
KAM3 160850Z 26004KT 03/M01 A3006 RMK A01 T00271011  RH  076%=      5-min Rain = 0
KAM3 160851Z 26003KT 03/M01 A3006 RMK A01 T00271011  RH  076%=      5-min Rain = 0
KAM3 160852Z 26004KT 03/M01 A3006 RMK A01 T00281011  RH  076%=      5-min Rain = 0
KAM3 160853Z 25004KT 03/M01 A3006 RMK A01 T00271012  RH  075%=      5-min Rain = 0
KAM3 160854Z 25004KT 03/M01 A3006 RMK A01 T00271011  RH  076%=      5-min Rain = 0
KAM3 160855Z 25004KT 03/M01 A3006 RMK A01 T00281011  RH  076%=      5-min Rain = 0
KAM3 160856Z 25004KT 03/M01 A3006 RMK A01 T00281011  RH  076%=      5-min Rain = 0
KAM3 160857Z 25004KT 03/M01 A3006 RMK A01 T00291011  RH  075%=      5-min Rain = 0
KAM3 160858Z 25004KT 03/M01 A3006 RMK A01 T00281012  RH  075%=      5-min Rain = 0
KAM3 160859Z 25005KT 03/M01 A3006 RMK A01 T00271012  RH  075%=      5-min Rain = 0
KAM3 160900Z 25005KT 03/M01 A3006 RMK A01 T00261013  RH  076%=      5-min Rain = 0
KAM3 160901Z 25005KT 03/M01 A3006 RMK A01 T00251013  RH  076%=      5-min Rain = 0
KAM3 160902Z 23004KT 02/M01 A3006 RMK A01 T00231013  RH  077%=      5-min Rain = 0
KAM3 160903Z 23004KT 02/M01 A3006 RMK A01 T00221014  RH  078%=      5-min Rain = 0
KAM3 160904Z 25003KT 02/M01 A3006 RMK A01 T00201013  RH  078%=      5-min Rain = 0
KAM3 160905Z 26004KT 02/M01 A3006 RMK A01 T00191013  RH  079%=      5-min Rain = 0
KAM3 160906Z 26004KT 02/M01 A3006 RMK A01 T00181012  RH  080%=      5-min Rain = 0
KAM3 160907Z 26004KT 02/M01 A3007 RMK A01 T00181011  RH  081%=      5-min Rain = 0
KAM3 160908Z 26005KT 02/M01 A3007 RMK A01 T00191009  RH  081%=      5-min Rain = 0
KAM3 160909Z 27005KT 02/M01 A3007 RMK A01 T00201008  RH  082%=      5-min Rain = 0
KAM3 160910Z 27004KT 02/M01 A3007 RMK A01 T00211007  RH  082%=      5-min Rain = 0
KAM3 160911Z 27004KT 02/M01 A3007 RMK A01 T00221006  RH  082%=      5-min Rain = 0
KAM3 160912Z 27004KT 02/M01 A3007 RMK A01 T00221006  RH  082%=      5-min Rain = 0
KAM3 160913Z 27004KT 02/M01 A3007 RMK A01 T00221006  RH  082%=      5-min Rain = 0
KAM3 160914Z 27003KT 02/M01 A3007 RMK A01 T00221007  RH  081%=      5-min Rain = 0
KAM3 160915Z 26003KT 02/M01 A3007 RMK A01 T00221007  RH  081%=      5-min Rain = 0
KAM3 160916Z 26003KT 02/M01 A3007 RMK A01 T00211008  RH  081%=      5-min Rain = 0
KAM3 160917Z 26003KT 02/M01 A3007 RMK A01 T00211008  RH  081%=      5-min Rain = 0
KAM3 160918Z 27003KT 02/M01 A3007 RMK A01 T00211007  RH  081%=      5-min Rain = 0
KAM3 160919Z 29002KT 02/M01 A3006 RMK A01 T00211007  RH  082%=      5-min Rain = 0
KAM3 160920Z 29002KT 02/M01 A3006 RMK A01 T00211007  RH  082%=      5-min Rain = 0
KAM3 160921Z 29002KT 02/M01 A3006 RMK A01 T00211007  RH  082%=      5-min Rain = 0
KAM3 160922Z 29002KT 02/M01 A3006 RMK A01 T00211007  RH  082%=      5-min Rain = 0
KAM3 160923Z 29002KT 02/M01 A3006 RMK A01 T00221006  RH  082%=      5-min Rain = 0
KAM3 160924Z 28003KT 02/M01 A3006 RMK A01 T00221006  RH  082%=      5-min Rain = 0
KAM3 160925Z 28002KT 02/M01 A3006 RMK A01 T00241006  RH  081%=      5-min Rain = 0
KAM3 160926Z 27002KT 02/M01 A3006 RMK A01 T00241006  RH  080%=      5-min Rain = 0
KAM3 160927Z 26002KT 03/M01 A3006 RMK A01 T00251006  RH  080%=      5-min Rain = 0
KAM3 160928Z 26002KT 03/M01 A3006 RMK A01 T00251006  RH  079%=      5-min Rain = 0
KAM3 160929Z 26002KT 03/M01 A3006 RMK A01 T00261007  RH  079%=      5-min Rain = 0
KAM3 160930Z 25002KT 03/M01 A3006 RMK A01 T00261007  RH  079%=      5-min Rain = 0
KAM3 160931Z 25002KT 03/M01 A3006 RMK A01 T00261007  RH  079%=      5-min Rain = 0
KAM3 160932Z 26002KT 03/M01 A3006 RMK A01 T00271007  RH  079%=      5-min Rain = 0
KAM3 160933Z 26002KT 03/M01 A3006 RMK A01 T00261007  RH  079%=      5-min Rain = 0
KAM3 160934Z 26002KT 03/M01 A3006 RMK A01 T00271007  RH  078%=      5-min Rain = 0
KAM3 160935Z 26003KT 03/M01 A3006 RMK A01 T00271007  RH  078%=      5-min Rain = 0
KAM3 160936Z 26003KT 03/M01 A3006 RMK A01 T00271007  RH  078%=      5-min Rain = 0
KAM3 160937Z 25003KT 03/M01 A3006 RMK A01 T00281007  RH  078%=      5-min Rain = 0
KAM3 160938Z 24003KT 03/M01 A3006 RMK A01 T00271007  RH  078%=      5-min Rain = 0
KAM3 160939Z 24003KT 03/M01 A3006 RMK A01 T00271007  RH  078%=      5-min Rain = 0
KAM3 160940Z 24003KT 03/M01 A3006 RMK A01 T00261007  RH  079%=      5-min Rain = 0
KAM3 160941Z 23003KT 03/M01 A3006 RMK A01 T00251008  RH  079%=      5-min Rain = 0
KAM3 160942Z 23003KT 02/M01 A3006 RMK A01 T00231009  RH  080%=      5-min Rain = 0
KAM3 160943Z 23003KT 02/M01 A3006 RMK A01 T00211010  RH  080%=      5-min Rain = 0
KAM3 160944Z 23003KT 02/M01 A3006 RMK A01 T00201010  RH  081%=      5-min Rain = 0
KAM3 160945Z 23003KT 02/M01 A3006 RMK A01 T00191010  RH  081%=      5-min Rain = 0
KAM3 160946Z 23003KT 02/M01 A3006 RMK A01 T00181010  RH  082%=      5-min Rain = 0
KAM3 160947Z 23003KT 02/M01 A3006 RMK A01 T00171010  RH  082%=      5-min Rain = 0
KAM3 160948Z 24003KT 02/M01 A3006 RMK A01 T00171009  RH  083%=      5-min Rain = 0
KAM3 160949Z 24003KT 02/M01 A3006 RMK A01 T00171007  RH  084%=      5-min Rain = 0
KAM3 160950Z 24003KT 02/M01 A3006 RMK A01 T00171007  RH  084%=      5-min Rain = 0
KAM3 160951Z 23003KT 02/M01 A3006 RMK A01 T00171006  RH  084%=      5-min Rain = 0
KAM3 160952Z 23003KT 02/M01 A3006 RMK A01 T00181006  RH  084%=      5-min Rain = 0
KAM3 160953Z 23003KT 02/M01 A3006 RMK A01 T00181007  RH  084%=      5-min Rain = 0
KAM3 160954Z 22003KT 02/M01 A3006 RMK A01 T00181007  RH  084%=      5-min Rain = 0
KAM3 160955Z 22003KT 02/M01 A3006 RMK A01 T00171008  RH  084%=      5-min Rain = 0
KAM3 160956Z 23003KT 02/M01 A3006 RMK A01 T00161008  RH  084%=      5-min Rain = 0
KAM3 160957Z 24003KT 02/M01 A3006 RMK A01 T00161008  RH  084%=      5-min Rain = 0
KAM3 160958Z 24003KT 02/M01 A3006 RMK A01 T00151008  RH  085%=      5-min Rain = 0
KAM3 160959Z 25003KT 02/M01 A3006 RMK A01 T00161007  RH  085%=      5-min Rain = 0
KAM3 161000Z 25003KT 02/M01 A3006 RMK A01 T00161007  RH  085%=      5-min Rain = 0
KAM3 161001Z 25003KT 02/M01 A3006 RMK A01 T00161007  RH  085%=      5-min Rain = 0
KAM3 161002Z 25003KT 02/M01 A3006 RMK A01 T00161007  RH  085%=      5-min Rain = 0
KAM3 161003Z 25003KT 02/M01 A3006 RMK A01 T00151007  RH  085%=      5-min Rain = 0
KAM3 161004Z 25003KT 02/M01 A3006 RMK A01 T00151008  RH  085%=      5-min Rain = 0
KAM3 161005Z 25003KT 02/M01 A3006 RMK A01 T00161007  RH  085%=      5-min Rain = 0
KAM3 161006Z 26004KT 02/M01 A3006 RMK A01 T00161007  RH  085%=      5-min Rain = 0
KAM3 161007Z 26004KT 02/M01 A3006 RMK A01 T00151008  RH  085%=      5-min Rain = 0
KAM3 161008Z 26004KT 02/M01 A3006 RMK A01 T00161007  RH  084%=      5-min Rain = 0
KAM3 161009Z 26004KT 02/M01 A3006 RMK A01 T00171007  RH  084%=      5-min Rain = 0
KAM3 161010Z 27005KT 02/M01 A3006 RMK A01 T00181007  RH  084%=      5-min Rain = 0
KAM3 161011Z 27005KT 02/M01 A3006 RMK A01 T00191007  RH  083%=      5-min Rain = 0
KAM3 161012Z 27005KT 02/M01 A3006 RMK A01 T00201008  RH  082%=      5-min Rain = 0
KAM3 161013Z 27006KT 02/M01 A3006 RMK A01 T00201009  RH  081%=      5-min Rain = 0
KAM3 161014Z 28006KT 02/M01 A3006 RMK A01 T00201010  RH  080%=      5-min Rain = 0
KAM3 161015Z 28006KT 02/M01 A3006 RMK A01 T00201011  RH  080%=      5-min Rain = 0
KAM3 161016Z 28006KT 02/M01 A3006 RMK A01 T00191011  RH  080%=      5-min Rain = 0
KAM3 161017Z 28006KT 02/M01 A3006 RMK A01 T00181011  RH  081%=      5-min Rain = 0
KAM3 161018Z 28006KT 02/M01 A3006 RMK A01 T00171012  RH  081%=      5-min Rain = 0
KAM3 161019Z 28005KT 02/M01 A3006 RMK A01 T00171012  RH  081%=      5-min Rain = 0
KAM3 161020Z 28005KT 02/M01 A3006 RMK A01 T00171012  RH  082%=      5-min Rain = 0
KAM3 161021Z 28005KT 02/M01 A3006 RMK A01 T00161012  RH  082%=      5-min Rain = 0
KAM3 161022Z 29005KT 02/M01 A3006 RMK A01 T00161012  RH  082%=      5-min Rain = 0
KAM3 161023Z 28005KT 02/M01 A3006 RMK A01 T00161011  RH  082%=      5-min Rain = 0
KAM3 161024Z 28004KT 02/M01 A3006 RMK A01 T00151012  RH  082%=      5-min Rain = 0
KAM3 161025Z 28004KT 01/M01 A3006 RMK A01 T00141012  RH  083%=      5-min Rain = 0
KAM3 161026Z 28004KT 01/M01 A3006 RMK A01 T00141012  RH  083%=      5-min Rain = 0
KAM3 161027Z 27004KT 01/M01 A3006 RMK A01 T00131012  RH  083%=      5-min Rain = 0
KAM3 161028Z 27003KT 01/M01 A3006 RMK A01 T00131012  RH  084%=      5-min Rain = 0
KAM3 161029Z 27003KT 01/M01 A3005 RMK A01 T00121012  RH  084%=      5-min Rain = 0
KAM3 161030Z 27004KT 01/M01 A3005 RMK A01 T00121012  RH  084%=      5-min Rain = 0
KAM3 161031Z 27003KT 01/M01 A3005 RMK A01 T00121012  RH  084%=      5-min Rain = 0
KAM3 161032Z 27004KT 01/M01 A3005 RMK A01 T00121012  RH  084%=      5-min Rain = 0
KAM3 161033Z 27004KT 01/M01 A3005 RMK A01 T00121012  RH  084%=      5-min Rain = 0
KAM3 161034Z 27004KT 01/M01 A3005 RMK A01 T00121012  RH  084%=      5-min Rain = 0
KAM3 161035Z 27004KT 01/M01 A3005 RMK A01 T00111012  RH  084%=      5-min Rain = 0
KAM3 161036Z 27005KT 01/M01 A3005 RMK A01 T00101013  RH  084%=      5-min Rain = 0
KAM3 161037Z 27004KT 01/M01 A3005 RMK A01 T00101013  RH  085%=      5-min Rain = 0
KAM3 161038Z 26005KT 01/M01 A3005 RMK A01 T00091013  RH  085%=      5-min Rain = 0
KAM3 161039Z 26005KT 01/M01 A3005 RMK A01 T00081013  RH  086%=      5-min Rain = 0
KAM3 161040Z 26004KT 01/M01 A3005 RMK A01 T00081013  RH  086%=      5-min Rain = 0
KAM3 161041Z 26005KT 01/M01 A3005 RMK A01 T00081012  RH  087%=      5-min Rain = 0
KAM3 161042Z 26005KT 01/M01 A3005 RMK A01 T00081011  RH  087%=      5-min Rain = 0
KAM3 161043Z 26005KT 01/M01 A3005 RMK A01 T00081011  RH  087%=      5-min Rain = 0
KAM3 161044Z 26005KT 01/M01 A3005 RMK A01 T00071012  RH  087%=      5-min Rain = 0
KAM3 161045Z 26005KT 01/M01 A3005 RMK A01 T00071012  RH  087%=      5-min Rain = 0
KAM3 161046Z 26005KT 01/M01 A3005 RMK A01 T00071011  RH  087%=      5-min Rain = 0
KAM3 161047Z 25005KT 01/M01 A3005 RMK A01 T00071011  RH  087%=      5-min Rain = 0
KAM3 161048Z 25005KT 01/M01 A3005 RMK A01 T00081011  RH  088%=      5-min Rain = 0
KAM3 161049Z 26005KT 01/M01 A3005 RMK A01 T00081011  RH  087%=      5-min Rain = 0
KAM3 161050Z 25006KT 01/M01 A3005 RMK A01 T00081011  RH  087%=      5-min Rain = 0
KAM3 161051Z 25005KT 01/M01 A3005 RMK A01 T00081011  RH  087%=      5-min Rain = 0
KAM3 161052Z 25005KT 01/M01 A3005 RMK A01 T00081012  RH  087%=      5-min Rain = 0
KAM3 161053Z 24004KT 01/M01 A3005 RMK A01 T00081012  RH  086%=      5-min Rain = 0
KAM3 161054Z 23004KT 01/M01 A3005 RMK A01 T00071013  RH  086%=      5-min Rain = 0
KAM3 161055Z 23004KT 01/M01 A3005 RMK A01 T00071013  RH  087%=      5-min Rain = 0
KAM3 161056Z 22003KT 01/M01 A3005 RMK A01 T00061013  RH  087%=      5-min Rain = 0
KAM3 161057Z 21004KT 01/M01 A3005 RMK A01 T00051014  RH  087%=      5-min Rain = 0
KAM3 161058Z 22004KT 00/M02 A3005 RMK A01 T00041015  RH  087%=      5-min Rain = 0
KAM3 161059Z 21004KT 00/M02 A3005 RMK A01 T00031015  RH  087%=      5-min Rain = 0
KAM3 161100Z 21004KT 00/M02 A3005 RMK A01 T00021016  RH  087%=      5-min Rain = 0
KAM3 161101Z 20004KT 00/M02 A3005 RMK A01 T00011016  RH  088%=      5-min Rain = 0
KAM3 161102Z 20004KT 00/02 A3005 RMK A01 T00000-15  RH  089%=      5-min Rain = 0
KAM3 161103Z 21005KT 00/01 A3005 RMK A01 T00000-14  RH  090%=      5-min Rain = 0
KAM3 161104Z 21004KT 00/01 A3005 RMK A01 T00000-13  RH  091%=      5-min Rain = 0
KAM3 161105Z 22005KT 00/01 A3005 RMK A01 T00000-12  RH  091%=      5-min Rain = 0
KAM3 161106Z 22005KT 00/01 A3005 RMK A01 T00-00-13  RH  091%=      5-min Rain = 0
KAM3 161107Z 22005KT M00/M01 A3004 RMK A01 T10011013  RH  092%=      5-min Rain = 0
KAM3 161108Z 22004KT M00/M01 A3004 RMK A01 T10011012  RH  092%=      5-min Rain = 0
KAM3 161109Z 22005KT M00/M01 A3004 RMK A01 T10011012  RH  092%=      5-min Rain = 0
KAM3 161110Z 22004KT M00/M01 A3004 RMK A01 T10011011  RH  093%=      5-min Rain = 0
KAM3 161111Z 23004KT 00/01 A3004 RMK A01 T00-00-11  RH  092%=      5-min Rain = 0
KAM3 161112Z 23004KT 00/01 A3004 RMK A01 T00000-11  RH  092%=      5-min Rain = 0
KAM3 161113Z 23005KT 00/M01 A3004 RMK A01 T00011011  RH  092%=      5-min Rain = 0
KAM3 161114Z 22005KT 00/M01 A3004 RMK A01 T00021011  RH  091%=      5-min Rain = 0
KAM3 161115Z 22005KT 00/M01 A3004 RMK A01 T00021012  RH  090%=      5-min Rain = 0
KAM3 161116Z 22005KT 00/M01 A3004 RMK A01 T00021013  RH  089%=      5-min Rain = 0
KAM3 161117Z 22004KT 00/M01 A3004 RMK A01 T00021014  RH  089%=      5-min Rain = 0
KAM3 161118Z 22004KT 00/M01 A3004 RMK A01 T00021014  RH  089%=      5-min Rain = 0
KAM3 161119Z 22005KT 00/M01 A3004 RMK A01 T00021013  RH  090%=      5-min Rain = 0
KAM3 161120Z 22004KT 00/M01 A3004 RMK A01 T00031012  RH  090%=      5-min Rain = 0
KAM3 161121Z 22005KT 00/M01 A3004 RMK A01 T00031013  RH  089%=      5-min Rain = 0
KAM3 161122Z 22005KT 00/M01 A3004 RMK A01 T00041012  RH  089%=      5-min Rain = 0
KAM3 161123Z 22004KT 00/M01 A3004 RMK A01 T00041012  RH  089%=      5-min Rain = 0
KAM3 161124Z 23005KT 01/M01 A3004 RMK A01 T00051013  RH  088%=      5-min Rain = 0
KAM3 161125Z 24005KT 01/M01 A3004 RMK A01 T00051013  RH  088%=      5-min Rain = 0
KAM3 161126Z 24006KT 01/M01 A3004 RMK A01 T00051013  RH  088%=      5-min Rain = 0
KAM3 161127Z 23005KT 01/M01 A3004 RMK A01 T00061013  RH  087%=      5-min Rain = 0
KAM3 161128Z 24005KT 01/M01 A3004 RMK A01 T00071012  RH  087%=      5-min Rain = 0
KAM3 161129Z 23004KT 01/M01 A3004 RMK A01 T00071013  RH  087%=      5-min Rain = 0
KAM3 161130Z 24005KT 01/M01 A3004 RMK A01 T00071013  RH  086%=      5-min Rain = 0
KAM3 161131Z 25005KT 01/M01 A3004 RMK A01 T00071014  RH  086%=      5-min Rain = 0
KAM3 161132Z 25005KT 01/M01 A3004 RMK A01 T00071014  RH  086%=      5-min Rain = 0
KAM3 161133Z 24005KT 01/M01 A3004 RMK A01 T00071013  RH  086%=      5-min Rain = 0
KAM3 161134Z 24004KT 01/M01 A3004 RMK A01 T00071013  RH  086%=      5-min Rain = 0
KAM3 161135Z 24004KT 01/M01 A3004 RMK A01 T00071013  RH  086%=      5-min Rain = 0
KAM3 161136Z 24004KT 01/M01 A3004 RMK A01 T00071014  RH  086%=      5-min Rain = 0
KAM3 161137Z 23004KT 01/M01 A3004 RMK A01 T00071014  RH  086%=      5-min Rain = 0
KAM3 161138Z 23004KT 01/M01 A3004 RMK A01 T00071014  RH  086%=      5-min Rain = 0
KAM3 161139Z 23004KT 01/M01 A3004 RMK A01 T00071014  RH  086%=      5-min Rain = 0
KAM3 161140Z 23004KT 01/M01 A3004 RMK A01 T00071013  RH  086%=      5-min Rain = 0
KAM3 161141Z 23004KT 01/M01 A3004 RMK A01 T00071014  RH  086%=      5-min Rain = 0
KAM3 161142Z 22004KT 01/M01 A3004 RMK A01 T00071014  RH  086%=      5-min Rain = 0
KAM3 161143Z 21004KT 01/M01 A3004 RMK A01 T00071013  RH  086%=      5-min Rain = 0
KAM3 161144Z 22004KT 01/M01 A3004 RMK A01 T00071013  RH  087%=      5-min Rain = 0
KAM3 161145Z 22004KT 01/M01 A3004 RMK A01 T00071013  RH  087%=      5-min Rain = 0
KAM3 161146Z 23004KT 01/M01 A3004 RMK A01 T00071012  RH  087%=      5-min Rain = 0
KAM3 161147Z 23005KT 01/M01 A3004 RMK A01 T00071012  RH  087%=      5-min Rain = 0
KAM3 161148Z 23005KT 01/M01 A3004 RMK A01 T00081012  RH  087%=      5-min Rain = 0
KAM3 161149Z 23005KT 01/M01 A3004 RMK A01 T00081011  RH  087%=      5-min Rain = 0
KAM3 161150Z 23004KT 01/M01 A3004 RMK A01 T00081012  RH  086%=      5-min Rain = 0
KAM3 161151Z 23004KT 01/M01 A3004 RMK A01 T00091011  RH  086%=      5-min Rain = 0
KAM3 161152Z 23005KT 01/M01 A3004 RMK A01 T00091012  RH  086%=      5-min Rain = 0
KAM3 161153Z 22005KT 01/M01 A3004 RMK A01 T00091012  RH  086%=      5-min Rain = 0
KAM3 161154Z 22004KT 01/M01 A3004 RMK A01 T00081012  RH  086%=      5-min Rain = 0
KAM3 161155Z 22004KT 01/M01 A3004 RMK A01 T00081012  RH  087%=      5-min Rain = 0
KAM3 161156Z 22004KT 01/M01 A3004 RMK A01 T00081012  RH  087%=      5-min Rain = 0
KAM3 161157Z 21004KT 01/M01 A3004 RMK A01 T00081012  RH  086%=      5-min Rain = 0
KAM3 161158Z 22005KT 01/M01 A3004 RMK A01 T00081012  RH  087%=      5-min Rain = 0
KAM3 161159Z 22005KT 01/M01 A3004 RMK A01 T00071012  RH  087%=      5-min Rain = 0
KAM3 161200Z 22005KT 01/M01 A3004 RMK A01 T00071011  RH  088%=      5-min Rain = 0
KAM3 161201Z 23005KT 01/M01 A3004 RMK A01 T00081010  RH  088%=      5-min Rain = 0
KAM3 161202Z 23005KT 01/M01 A3004 RMK A01 T00081011  RH  087%=      5-min Rain = 0
KAM3 161203Z 24005KT 01/M01 A3004 RMK A01 T00081011  RH  087%=      5-min Rain = 0
KAM3 161204Z 23005KT 01/M01 A3004 RMK A01 T00081011  RH  088%=      5-min Rain = 0
KAM3 161205Z 24005KT 01/M01 A3003 RMK A01 T00081011  RH  087%=      5-min Rain = 0
KAM3 161206Z 24005KT 01/M01 A3003 RMK A01 T00071011  RH  088%=      5-min Rain = 0
KAM3 161207Z 24005KT 01/M01 A3003 RMK A01 T00071010  RH  088%=      5-min Rain = 0
KAM3 161208Z 23005KT 01/M01 A3003 RMK A01 T00071011  RH  088%=      5-min Rain = 0
KAM3 161209Z 23005KT 01/M01 A3003 RMK A01 T00071011  RH  088%=      5-min Rain = 0
KAM3 161210Z 23005KT 01/M01 A3003 RMK A01 T00071011  RH  088%=      5-min Rain = 0
KAM3 161211Z 24005KT 01/M01 A3003 RMK A01 T00061011  RH  088%=      5-min Rain = 0
KAM3 161212Z 24005KT 01/M01 A3003 RMK A01 T00061011  RH  088%=      5-min Rain = 0
KAM3 161213Z 24005KT 01/M01 A3004 RMK A01 T00061011  RH  089%=      5-min Rain = 0
KAM3 161214Z 24005KT 01/M01 A3004 RMK A01 T00061011  RH  089%=      5-min Rain = 0
KAM3 161215Z 24005KT 01/M01 A3004 RMK A01 T00051011  RH  089%=      5-min Rain = 0
KAM3 161216Z 24005KT 01/M01 A3004 RMK A01 T00051011  RH  089%=      5-min Rain = 0
KAM3 161217Z 24005KT 01/M01 A3004 RMK A01 T00051011  RH  089%=      5-min Rain = 0
KAM3 161218Z 24005KT 01/M01 A3004 RMK A01 T00051010  RH  090%=      5-min Rain = 0
KAM3 161219Z 23004KT 01/M01 A3004 RMK A01 T00051010  RH  090%=      5-min Rain = 0
KAM3 161220Z 23004KT 01/M01 A3004 RMK A01 T00051011  RH  090%=      5-min Rain = 0
KAM3 161221Z 23004KT 01/M01 A3004 RMK A01 T00051009  RH  090%=      5-min Rain = 0
KAM3 161222Z 24004KT 01/M01 A3004 RMK A01 T00051009  RH  091%=      5-min Rain = 0
KAM3 161223Z 23004KT 01/M01 A3004 RMK A01 T00051009  RH  091%=      5-min Rain = 0
KAM3 161224Z 23004KT 01/M01 A3004 RMK A01 T00051008  RH  091%=      5-min Rain = 0
KAM3 161225Z 22004KT 01/M01 A3003 RMK A01 T00061008  RH  091%=      5-min Rain = 0
KAM3 161226Z 22004KT 01/M01 A3003 RMK A01 T00061008  RH  091%=      5-min Rain = 0
KAM3 161227Z 22004KT 01/M01 A3003 RMK A01 T00071007  RH  091%=      5-min Rain = 0
KAM3 161228Z 21004KT 01/M01 A3003 RMK A01 T00081006  RH  091%=      5-min Rain = 0
KAM3 161229Z 21004KT 01/M01 A3003 RMK A01 T00081006  RH  090%=      5-min Rain = 0
KAM3 161230Z 21004KT 01/M01 A3003 RMK A01 T00081006  RH  090%=      5-min Rain = 0
KAM3 161231Z 21004KT 01/M01 A3003 RMK A01 T00091006  RH  090%=      5-min Rain = 0
KAM3 161232Z 21004KT 01/M01 A3004 RMK A01 T00091007  RH  089%=      5-min Rain = 0
KAM3 161233Z 21004KT 01/M01 A3004 RMK A01 T00091007  RH  089%=      5-min Rain = 0
KAM3 161234Z 21004KT 01/M01 A3004 RMK A01 T00091006  RH  090%=      5-min Rain = 0
KAM3 161235Z 21004KT 01/M01 A3004 RMK A01 T00091006  RH  090%=      5-min Rain = 0
KAM3 161236Z 21005KT 01/M01 A3004 RMK A01 T00091006  RH  090%=      5-min Rain = 0
KAM3 161237Z 21005KT 01/M01 A3004 RMK A01 T00101006  RH  090%=      5-min Rain = 0
KAM3 161238Z 22004KT 01/M01 A3004 RMK A01 T00101006  RH  090%=      5-min Rain = 0
KAM3 161239Z 22005KT 01/M01 A3004 RMK A01 T00091006  RH  090%=      5-min Rain = 0
KAM3 161240Z 22005KT 01/M01 A3004 RMK A01 T00091006  RH  090%=      5-min Rain = 0
KAM3 161241Z 21006KT 01/M01 A3004 RMK A01 T00091005  RH  090%=      5-min Rain = 0
KAM3 161242Z 21005KT 01/M01 A3004 RMK A01 T00091005  RH  091%=      5-min Rain = 0
KAM3 161243Z 21005KT 01/M00 A3004 RMK A01 T00091004  RH  091%=      5-min Rain = 0
KAM3 161244Z 21006KT 01/M00 A3004 RMK A01 T00091003  RH  092%=      5-min Rain = 0
KAM3 161245Z 21005KT 01/M00 A3004 RMK A01 T00091002  RH  092%=      5-min Rain = 0
KAM3 161246Z 21006KT 01/M00 A3004 RMK A01 T00101001  RH  092%=      5-min Rain = 0
KAM3 161247Z 21006KT 01/M00 A3004 RMK A01 T00101002  RH  092%=      5-min Rain = 0
KAM3 161248Z 21005KT 01/M00 A3004 RMK A01 T00101003  RH  091%=      5-min Rain = 0
KAM3 161249Z 21005KT 01/M00 A3004 RMK A01 T00101003  RH  091%=      5-min Rain = 0
KAM3 161250Z 21004KT 01/M00 A3004 RMK A01 T00101004  RH  091%=      5-min Rain = 0
KAM3 161251Z 22005KT 01/M00 A3004 RMK A01 T00101004  RH  091%=      5-min Rain = 0
KAM3 161252Z 21005KT 01/M00 A3004 RMK A01 T00101004  RH  090%=      5-min Rain = 0
KAM3 161253Z 21005KT 01/M00 A3004 RMK A01 T00101004  RH  090%=      5-min Rain = 0
KAM3 161254Z 21005KT 01/M01 A3004 RMK A01 T00101005  RH  090%=      5-min Rain = 0
KAM3 161255Z 21004KT 01/M01 A3004 RMK A01 T00101005  RH  090%=      5-min Rain = 0
KAM3 161256Z 22004KT 01/M00 A3004 RMK A01 T00101004  RH  090%=      5-min Rain = 0
KAM3 161257Z 22004KT 01/M00 A3004 RMK A01 T00101004  RH  090%=      5-min Rain = 0
KAM3 161258Z 22004KT 01/M00 A3004 RMK A01 T00111003  RH  090%=      5-min Rain = 0
KAM3 161259Z 22004KT 01/M00 A3004 RMK A01 T00121003  RH  090%=      5-min Rain = 0
KAM3 161300Z 22004KT 01/M00 A3004 RMK A01 T00121004  RH  089%=      5-min Rain = 0
KAM3 161301Z 22004KT 01/M00 A3004 RMK A01 T00131004  RH  089%=      5-min Rain = 0
KAM3 161302Z 22004KT 01/M00 A3004 RMK A01 T00131004  RH  089%=      5-min Rain = 0
KAM3 161303Z 22004KT 01/M00 A3004 RMK A01 T00131004  RH  088%=      5-min Rain = 0
KAM3 161304Z 22004KT 01/M01 A3004 RMK A01 T00131005  RH  088%=      5-min Rain = 0
KAM3 161305Z 22004KT 01/M01 A3004 RMK A01 T00131005  RH  088%=      5-min Rain = 0
KAM3 161306Z 22004KT 01/M01 A3004 RMK A01 T00131005  RH  088%=      5-min Rain = 0
KAM3 161307Z 22004KT 01/M01 A3004 RMK A01 T00131005  RH  088%=      5-min Rain = 0
KAM3 161308Z 22004KT 01/M01 A3004 RMK A01 T00131006  RH  087%=      5-min Rain = 0
KAM3 161309Z 22004KT 01/M01 A3004 RMK A01 T00131006  RH  087%=      5-min Rain = 0
KAM3 161310Z 21004KT 01/M01 A3004 RMK A01 T00131006  RH  087%=      5-min Rain = 0
KAM3 161311Z 21004KT 01/M01 A3004 RMK A01 T00121007  RH  087%=      5-min Rain = 0
KAM3 161312Z 21004KT 01/M01 A3004 RMK A01 T00121006  RH  087%=      5-min Rain = 0
KAM3 161313Z 21004KT 01/M01 A3004 RMK A01 T00121006  RH  087%=      5-min Rain = 0
KAM3 161314Z 21004KT 01/M01 A3004 RMK A01 T00131006  RH  087%=      5-min Rain = 0
KAM3 161315Z 21004KT 01/M01 A3004 RMK A01 T00121006  RH  087%=      5-min Rain = 0
KAM3 161316Z 22004KT 01/M01 A3004 RMK A01 T00131006  RH  087%=      5-min Rain = 0
KAM3 161317Z 22004KT 01/M01 A3004 RMK A01 T00141006  RH  087%=      5-min Rain = 0
KAM3 161318Z 22004KT 01/M01 A3004 RMK A01 T00141006  RH  087%=      5-min Rain = 0
KAM3 161319Z 22004KT 02/M01 A3004 RMK A01 T00151006  RH  086%=      5-min Rain = 0
KAM3 161320Z 21004KT 02/M01 A3004 RMK A01 T00151006  RH  086%=      5-min Rain = 0
KAM3 161321Z 21005KT 02/M01 A3005 RMK A01 T00151006  RH  086%=      5-min Rain = 0
KAM3 161322Z 21005KT 02/M01 A3005 RMK A01 T00151007  RH  085%=      5-min Rain = 0
KAM3 161323Z 21005KT 02/M01 A3005 RMK A01 T00151006  RH  086%=      5-min Rain = 0
KAM3 161324Z 21005KT 02/M01 A3004 RMK A01 T00151006  RH  086%=      5-min Rain = 0
KAM3 161325Z 21005KT 02/M01 A3004 RMK A01 T00151006  RH  086%=      5-min Rain = 0
KAM3 161326Z 21005KT 02/M01 A3004 RMK A01 T00151006  RH  086%=      5-min Rain = 0
KAM3 161327Z 21004KT 02/M01 A3004 RMK A01 T00151006  RH  086%=      5-min Rain = 0
KAM3 161328Z 21004KT 02/M01 A3005 RMK A01 T00151007  RH  086%=      5-min Rain = 0
KAM3 161329Z 21004KT 01/M01 A3005 RMK A01 T00141007  RH  086%=      5-min Rain = 0
KAM3 161330Z 21004KT 01/M01 A3005 RMK A01 T00141006  RH  086%=      5-min Rain = 0
KAM3 161331Z 22004KT 01/M01 A3005 RMK A01 T00141006  RH  086%=      5-min Rain = 0
KAM3 161332Z 22004KT 01/M01 A3005 RMK A01 T00141006  RH  086%=      5-min Rain = 0
KAM3 161333Z 22004KT 02/M01 A3005 RMK A01 T00151006  RH  086%=      5-min Rain = 0
KAM3 161334Z 22004KT 02/M01 A3005 RMK A01 T00151006  RH  086%=      5-min Rain = 0
KAM3 161335Z 22004KT 02/M01 A3005 RMK A01 T00151006  RH  086%=      5-min Rain = 0
KAM3 161336Z 22004KT 02/M01 A3005 RMK A01 T00151006  RH  086%=      5-min Rain = 0
KAM3 161337Z 22004KT 02/M01 A3005 RMK A01 T00151005  RH  086%=      5-min Rain = 0
KAM3 161338Z 22004KT 02/M01 A3005 RMK A01 T00151006  RH  086%=      5-min Rain = 0
KAM3 161339Z 22004KT 02/M01 A3005 RMK A01 T00151006  RH  086%=      5-min Rain = 0
KAM3 161340Z 23004KT 02/M01 A3005 RMK A01 T00151006  RH  086%=      5-min Rain = 0
KAM3 161341Z 23004KT 02/M01 A3005 RMK A01 T00151005  RH  086%=      5-min Rain = 0
KAM3 161342Z 23004KT 02/M01 A3005 RMK A01 T00151006  RH  086%=      5-min Rain = 0
KAM3 161343Z 23004KT 02/M01 A3005 RMK A01 T00161005  RH  086%=      5-min Rain = 0
KAM3 161344Z 24004KT 02/M01 A3005 RMK A01 T00161006  RH  086%=      5-min Rain = 0
KAM3 161345Z 24004KT 02/M01 A3005 RMK A01 T00161006  RH  086%=      5-min Rain = 0
KAM3 161346Z 25005KT 02/M01 A3005 RMK A01 T00161006  RH  086%=      5-min Rain = 0
KAM3 161347Z 25005KT 02/M01 A3005 RMK A01 T00161006  RH  085%=      5-min Rain = 0
KAM3 161348Z 25005KT 02/M01 A3005 RMK A01 T00161006  RH  085%=      5-min Rain = 0
KAM3 161349Z 25005KT 02/M01 A3005 RMK A01 T00161006  RH  085%=      5-min Rain = 0
KAM3 161350Z 24005KT 02/M01 A3005 RMK A01 T00161006  RH  085%=      5-min Rain = 0
KAM3 161351Z 24004KT 02/M01 A3005 RMK A01 T00151007  RH  085%=      5-min Rain = 0
KAM3 161352Z 24004KT 02/M01 A3005 RMK A01 T00151007  RH  086%=      5-min Rain = 0
KAM3 161353Z 24005KT 01/M01 A3005 RMK A01 T00141007  RH  086%=      5-min Rain = 0
KAM3 161354Z 24004KT 01/M01 A3005 RMK A01 T00141007  RH  086%=      5-min Rain = 0
KAM3 161355Z 24004KT 01/M01 A3005 RMK A01 T00141007  RH  087%=      5-min Rain = 0
KAM3 161356Z 24004KT 01/M01 A3005 RMK A01 T00141006  RH  087%=      5-min Rain = 0
KAM3 161357Z 24004KT 02/M01 A3005 RMK A01 T00151006  RH  087%=      5-min Rain = 0
KAM3 161358Z 25004KT 02/M01 A3005 RMK A01 T00151005  RH  086%=      5-min Rain = 0
KAM3 161359Z 26005KT 02/M01 A3005 RMK A01 T00161005  RH  086%=      5-min Rain = 0
KAM3 161400Z 25004KT 02/M00 A3005 RMK A01 T00171004  RH  086%=      5-min Rain = 0
KAM3 161401Z 25004KT 02/M00 A3005 RMK A01 T00181004  RH  085%=      5-min Rain = 0
KAM3 161402Z 25004KT 02/M01 A3005 RMK A01 T00191005  RH  084%=      5-min Rain = 0
KAM3 161403Z 25004KT 02/M01 A3005 RMK A01 T00191005  RH  084%=      5-min Rain = 0
KAM3 161404Z 25004KT 02/M01 A3005 RMK A01 T00201006  RH  083%=      5-min Rain = 0
KAM3 161405Z 25004KT 02/M01 A3005 RMK A01 T00201006  RH  083%=      5-min Rain = 0
KAM3 161406Z 24004KT 02/M01 A3005 RMK A01 T00201006  RH  083%=      5-min Rain = 0
KAM3 161407Z 25004KT 02/M01 A3005 RMK A01 T00201006  RH  083%=      5-min Rain = 0
KAM3 161408Z 25003KT 02/M01 A3005 RMK A01 T00201006  RH  083%=      5-min Rain = 0
KAM3 161409Z 25003KT 02/M01 A3005 RMK A01 T00191006  RH  083%=      5-min Rain = 0
KAM3 161410Z 25004KT 02/M01 A3005 RMK A01 T00191006  RH  083%=      5-min Rain = 0
KAM3 161411Z 25003KT 02/M01 A3005 RMK A01 T00191006  RH  083%=      5-min Rain = 0
KAM3 161412Z 25003KT 02/M01 A3005 RMK A01 T00201006  RH  083%=      5-min Rain = 0
KAM3 161413Z 24004KT 02/M01 A3005 RMK A01 T00201006  RH  083%=      5-min Rain = 0
KAM3 161414Z 24004KT 02/M01 A3005 RMK A01 T00201006  RH  083%=      5-min Rain = 0
KAM3 161415Z 23004KT 02/M01 A3005 RMK A01 T00201006  RH  083%=      5-min Rain = 0
KAM3 161416Z 23004KT 02/M01 A3005 RMK A01 T00191006  RH  083%=      5-min Rain = 0
KAM3 161417Z 23004KT 02/M01 A3005 RMK A01 T00191007  RH  083%=      5-min Rain = 0
KAM3 161418Z 23004KT 02/M01 A3005 RMK A01 T00181007  RH  083%=      5-min Rain = 0
KAM3 161419Z 23004KT 02/M01 A3005 RMK A01 T00171007  RH  084%=      5-min Rain = 0
KAM3 161420Z 23004KT 02/M01 A3005 RMK A01 T00171007  RH  084%=      5-min Rain = 0
KAM3 161421Z 24004KT 02/M01 A3005 RMK A01 T00161008  RH  084%=      5-min Rain = 0
KAM3 161422Z 24004KT 02/M01 A3005 RMK A01 T00161008  RH  084%=      5-min Rain = 0
KAM3 161423Z 24004KT 02/M01 A3005 RMK A01 T00161007  RH  085%=      5-min Rain = 0
KAM3 161424Z 23004KT 02/M01 A3005 RMK A01 T00161008  RH  084%=      5-min Rain = 0
KAM3 161425Z 23004KT 02/M01 A3005 RMK A01 T00151008  RH  085%=      5-min Rain = 0
KAM3 161426Z 23003KT 02/M01 A3005 RMK A01 T00151008  RH  085%=      5-min Rain = 0
KAM3 161427Z 24003KT 01/M01 A3005 RMK A01 T00141008  RH  085%=      5-min Rain = 0
KAM3 161428Z 24003KT 01/M01 A3005 RMK A01 T00141009  RH  085%=      5-min Rain = 0
KAM3 161429Z 23003KT 01/M01 A3005 RMK A01 T00131009  RH  085%=      5-min Rain = 0
KAM3 161430Z 24002KT 01/M01 A3005 RMK A01 T00131009  RH  085%=      5-min Rain = 0
KAM3 161431Z 25002KT 01/M01 A3005 RMK A01 T00131009  RH  085%=      5-min Rain = 0
KAM3 161432Z 25001KT 01/M01 A3005 RMK A01 T00131009  RH  085%=      5-min Rain = 0
KAM3 161433Z 26003KT 01/M01 A3005 RMK A01 T00141008  RH  085%=      5-min Rain = 0
KAM3 161434Z 26002KT 01/M01 A3004 RMK A01 T00141008  RH  085%=      5-min Rain = 0
KAM3 161435Z 25002KT 02/M01 A3004 RMK A01 T00151007  RH  085%=      5-min Rain = 0
KAM3 161436Z 24002KT 02/M01 A3005 RMK A01 T00161006  RH  085%=      5-min Rain = 0
KAM3 161437Z 24003KT 02/M01 A3004 RMK A01 T00161007  RH  085%=      5-min Rain = 0
KAM3 161438Z 24002KT 02/M01 A3004 RMK A01 T00171007  RH  084%=      5-min Rain = 0
KAM3 161439Z 23003KT 02/M01 A3004 RMK A01 T00181006  RH  084%=      5-min Rain = 0
KAM3 161440Z 25002KT 02/M01 A3004 RMK A01 T00181006  RH  084%=      5-min Rain = 0
KAM3 161441Z 25002KT 02/M01 A3004 RMK A01 T00191006  RH  084%=      5-min Rain = 0
KAM3 161442Z 25002KT 02/M01 A3004 RMK A01 T00201005  RH  083%=      5-min Rain = 0
KAM3 161443Z 25002KT 02/M01 A3004 RMK A01 T00211005  RH  083%=      5-min Rain = 0
KAM3 161444Z 25002KT 02/M00 A3004 RMK A01 T00221004  RH  083%=      5-min Rain = 0
KAM3 161445Z 26001KT 02/M00 A3005 RMK A01 T00231004  RH  083%=      5-min Rain = 0
KAM3 161446Z 26002KT 02/M00 A3005 RMK A01 T00241003  RH  082%=      5-min Rain = 0
KAM3 161447Z 26002KT 03/M00 A3004 RMK A01 T00251001  RH  083%=      5-min Rain = 0
KAM3 161448Z 25001KT 03/00 A3004 RMK A01 T002600-0  RH  083%=      5-min Rain = 0
KAM3 161449Z 27001KT 03/00 A3004 RMK A01 T00280001  RH  082%=      5-min Rain = 0
KAM3 161450Z 27002KT 03/00 A3004 RMK A01 T00290001  RH  082%=      5-min Rain = 0
KAM3 161451Z 25002KT 03/00 A3004 RMK A01 T00300001  RH  081%=      5-min Rain = 0
KAM3 161452Z 25003KT 03/00 A3005 RMK A01 T00300001  RH  081%=      5-min Rain = 0
KAM3 161453Z 24002KT 03/00 A3005 RMK A01 T00310001  RH  081%=      5-min Rain = 0
KAM3 161454Z 22002KT 03/00 A3004 RMK A01 T00320002  RH  081%=      5-min Rain = 0
KAM3 161455Z 23002KT 03/00 A3004 RMK A01 T00320001  RH  080%=      5-min Rain = 0
KAM3 161456Z 23002KT 03/00 A3005 RMK A01 T00330001  RH  079%=      5-min Rain = 0
KAM3 161457Z 24003KT 03/00 A3005 RMK A01 T00340001  RH  079%=      5-min Rain = 0
KAM3 161458Z 24002KT 03/00 A3005 RMK A01 T00340001  RH  079%=      5-min Rain = 0
KAM3 161459Z 23002KT 03/00 A3004 RMK A01 T00340001  RH  079%=      5-min Rain = 0
KAM3 161500Z 23001KT 03/00 A3005 RMK A01 T00340000  RH  078%=      5-min Rain = 0
KAM3 161501Z 23002KT 04/00 A3005 RMK A01 T00350000  RH  078%=      5-min Rain = 0
KAM3 161502Z 22002KT 04/00 A3005 RMK A01 T00350000  RH  078%=      5-min Rain = 0
KAM3 161503Z 21002KT 04/00 A3005 RMK A01 T00360001  RH  078%=      5-min Rain = 0
KAM3 161504Z 20003KT 04/00 A3005 RMK A01 T00360002  RH  078%=      5-min Rain = 0
KAM3 161505Z 20003KT 04/00 A3005 RMK A01 T00360002  RH  078%=      5-min Rain = 0
KAM3 161506Z 18002KT 04/00 A3005 RMK A01 T00360003  RH  079%=      5-min Rain = 0
KAM3 161507Z 19003KT 04/00 A3005 RMK A01 T00370004  RH  079%=      5-min Rain = 0
KAM3 161508Z 21003KT 04/01 A3005 RMK A01 T00380005  RH  079%=      5-min Rain = 0
KAM3 161509Z 21003KT 04/01 A3005 RMK A01 T00390006  RH  079%=      5-min Rain = 0
KAM3 161510Z 21003KT 04/01 A3005 RMK A01 T00400007  RH  079%=      5-min Rain = 0
KAM3 161511Z 20002KT 04/01 A3005 RMK A01 T00410008  RH  079%=      5-min Rain = 0
KAM3 161512Z 21003KT 04/01 A3005 RMK A01 T00420009  RH  079%=      5-min Rain = 0
KAM3 161513Z 20002KT 04/01 A3005 RMK A01 T00430011  RH  080%=      5-min Rain = 0
KAM3 161514Z 21001KT 04/01 A3005 RMK A01 T00440012  RH  080%=      5-min Rain = 0
KAM3 161515Z 25001KT 04/01 A3005 RMK A01 T00440010  RH  079%=      5-min Rain = 0
KAM3 161516Z 24002KT 05/01 A3005 RMK A01 T00450011  RH  078%=      5-min Rain = 0
KAM3 161517Z 24002KT 05/01 A3005 RMK A01 T00470012  RH  078%=      5-min Rain = 0
KAM3 161518Z 24002KT 05/01 A3004 RMK A01 T00480010  RH  076%=      5-min Rain = 0
KAM3 161519Z 22002KT 05/01 A3004 RMK A01 T00490011  RH  076%=      5-min Rain = 0
KAM3 161520Z 22003KT 05/01 A3004 RMK A01 T00490010  RH  075%=      5-min Rain = 0
KAM3 161521Z 23002KT 05/01 A3004 RMK A01 T00500011  RH  076%=      5-min Rain = 0
KAM3 161522Z 26003KT 05/01 A3005 RMK A01 T00510012  RH  076%=      5-min Rain = 0
KAM3 161523Z 26004KT 05/01 A3005 RMK A01 T00520011  RH  075%=      5-min Rain = 0
KAM3 161524Z 25004KT 05/01 A3004 RMK A01 T00520010  RH  074%=      5-min Rain = 0
KAM3 161525Z 27002KT 05/01 A3004 RMK A01 T00520009  RH  074%=      5-min Rain = 0
KAM3 161526Z 27003KT 05/01 A3004 RMK A01 T00530011  RH  074%=      5-min Rain = 0
KAM3 161527Z 26003KT 06/01 A3004 RMK A01 T00550013  RH  074%=      5-min Rain = 0
KAM3 161528Z 26004KT 06/01 A3004 RMK A01 T00570012  RH  073%=      5-min Rain = 0
KAM3 161529Z 26005KT 06/01 A3004 RMK A01 T00570010  RH  072%=      5-min Rain = 0
KAM3 161530Z 27005KT 06/01 A3004 RMK A01 T00580012  RH  072%=      5-min Rain = 0
KAM3 161531Z 28004KT 06/01 A3004 RMK A01 T00590012  RH  072%=      5-min Rain = 0
KAM3 161532Z 29004KT 06/01 A3004 RMK A01 T00600012  RH  071%=      5-min Rain = 0
KAM3 161533Z 28004KT 06/01 A3004 RMK A01 T00600012  RH  071%=      5-min Rain = 0
KAM3 161534Z 30003KT 06/01 A3004 RMK A01 T00600011  RH  070%=      5-min Rain = 0
KAM3 161535Z 31004KT 06/01 A3004 RMK A01 T00600010  RH  070%=      5-min Rain = 0
KAM3 161536Z 31004KT 06/01 A3004 RMK A01 T00600009  RH  070%=      5-min Rain = 0
KAM3 161537Z 32005KT 06/01 A3004 RMK A01 T00600012  RH  071%=      5-min Rain = 0
KAM3 161538Z 31004KT 06/01 A3004 RMK A01 T00600011  RH  071%=      5-min Rain = 0
KAM3 161539Z 32005KT 06/01 A3004 RMK A01 T00600011  RH  071%=      5-min Rain = 0
KAM3 161540Z 32004KT 06/01 A3004 RMK A01 T00600010  RH  071%=      5-min Rain = 0
KAM3 161541Z 30004KT 06/01 A3004 RMK A01 T00600010  RH  070%=      5-min Rain = 0
KAM3 161542Z 30005KT 06/01 A3004 RMK A01 T00610012  RH  071%=      5-min Rain = 0
KAM3 161543Z 30006KT 06/01 A3004 RMK A01 T00620009  RH  069%=      5-min Rain = 0
KAM3 161544Z 30006KT 06/01 A3004 RMK A01 T00610009  RH  069%=      5-min Rain = 0
KAM3 161545Z 30004KT 06/01 A3004 RMK A01 T00600009  RH  070%=      5-min Rain = 0
KAM3 161546Z 29005KT 06/01 A3004 RMK A01 T00600008  RH  069%=      5-min Rain = 0
KAM3 161547Z 29004KT 06/01 A3004 RMK A01 T00590006  RH  069%=      5-min Rain = 0
KAM3 161548Z 29004KT 06/01 A3004 RMK A01 T00570005  RH  069%=      5-min Rain = 0
KAM3 161549Z 29004KT 06/01 A3004 RMK A01 T00570007  RH  070%=      5-min Rain = 0
KAM3 161550Z 30004KT 06/01 A3004 RMK A01 T00570008  RH  070%=      5-min Rain = 0
KAM3 161551Z 30004KT 06/01 A3004 RMK A01 T00580007  RH  070%=      5-min Rain = 0
KAM3 161552Z 30004KT 06/01 A3004 RMK A01 T00600009  RH  070%=      5-min Rain = 0
KAM3 161553Z 29004KT 06/01 A3004 RMK A01 T00600006  RH  068%=      5-min Rain = 0
KAM3 161554Z 30004KT 06/01 A3004 RMK A01 T00600006  RH  068%=      5-min Rain = 0
KAM3 161555Z 30004KT 06/01 A3004 RMK A01 T00590007  RH  069%=      5-min Rain = 0
KAM3 161556Z 30004KT 06/01 A3004 RMK A01 T00600008  RH  069%=      5-min Rain = 0
KAM3 161557Z 29005KT 06/01 A3004 RMK A01 T00610008  RH  069%=      5-min Rain = 0
KAM3 161558Z 29003KT 06/01 A3004 RMK A01 T00620008  RH  068%=      5-min Rain = 0
KAM3 161559Z 29004KT 06/01 A3005 RMK A01 T00640010  RH  069%=      5-min Rain = 0
KAM3 161600Z 29004KT 07/01 A3005 RMK A01 T00650008  RH  067%=      5-min Rain = 0
KAM3 161601Z 27003KT 07/01 A3004 RMK A01 T00650009  RH  067%=      5-min Rain = 0
KAM3 161602Z 27004KT 07/01 A3005 RMK A01 T00660008  RH  067%=      5-min Rain = 0
KAM3 161603Z 28004KT 07/01 A3005 RMK A01 T00660008  RH  066%=      5-min Rain = 0
KAM3 161604Z 29003KT 07/01 A3005 RMK A01 T00670008  RH  066%=      5-min Rain = 0
KAM3 161605Z 28003KT 07/01 A3005 RMK A01 T00670008  RH  066%=      5-min Rain = 0
KAM3 161606Z 31003KT 07/01 A3005 RMK A01 T00670009  RH  066%=      5-min Rain = 0
KAM3 161607Z 31004KT 07/01 A3005 RMK A01 T00670008  RH  066%=      5-min Rain = 0
KAM3 161608Z 31003KT 07/01 A3005 RMK A01 T00670008  RH  066%=      5-min Rain = 0
KAM3 161609Z 31003KT 07/01 A3005 RMK A01 T00670008  RH  066%=      5-min Rain = 0
KAM3 161610Z 28002KT 07/01 A3004 RMK A01 T00670008  RH  066%=      5-min Rain = 0
KAM3 161611Z 31003KT 07/01 A3004 RMK A01 T00670008  RH  066%=      5-min Rain = 0
KAM3 161612Z 29004KT 07/01 A3004 RMK A01 T00680010  RH  067%=      5-min Rain = 0
KAM3 161613Z 28004KT 07/01 A3004 RMK A01 T00690009  RH  066%=      5-min Rain = 0
KAM3 161614Z 30004KT 07/01 A3004 RMK A01 T00700009  RH  065%=      5-min Rain = 0
KAM3 161615Z 29004KT 07/01 A3004 RMK A01 T00710010  RH  065%=      5-min Rain = 0
KAM3 161616Z 30005KT 07/01 A3004 RMK A01 T00730011  RH  065%=      5-min Rain = 0
KAM3 161617Z 29004KT 08/01 A3004 RMK A01 T00760011  RH  064%=      5-min Rain = 0
KAM3 161618Z 29004KT 08/01 A3004 RMK A01 T00780012  RH  063%=      5-min Rain = 0
KAM3 161619Z 30003KT 08/01 A3004 RMK A01 T00800012  RH  062%=      5-min Rain = 0
KAM3 161620Z 29004KT 08/01 A3004 RMK A01 T00820012  RH  061%=      5-min Rain = 0
KAM3 161621Z 28005KT 08/01 A3004 RMK A01 T00830012  RH  061%=      5-min Rain = 0
KAM3 161622Z 28005KT 09/01 A3004 RMK A01 T00850012  RH  060%=      5-min Rain = 0
KAM3 161623Z 28004KT 09/01 A3004 RMK A01 T00850012  RH  060%=      5-min Rain = 0
KAM3 161624Z 30005KT 08/01 A3004 RMK A01 T00840011  RH  060%=      5-min Rain = 0
KAM3 161625Z 29005KT 08/01 A3004 RMK A01 T00830010  RH  060%=      5-min Rain = 0
KAM3 161626Z 29004KT 08/01 A3004 RMK A01 T00830010  RH  060%=      5-min Rain = 0
KAM3 161627Z 29004KT 08/01 A3004 RMK A01 T00830011  RH  061%=      5-min Rain = 0
KAM3 161628Z 29004KT 08/01 A3004 RMK A01 T00840012  RH  060%=      5-min Rain = 0
KAM3 161629Z 29004KT 09/01 A3004 RMK A01 T00850012  RH  060%=      5-min Rain = 0
KAM3 161630Z 30005KT 09/01 A3004 RMK A01 T00870012  RH  060%=      5-min Rain = 0
KAM3 161631Z 30005KT 09/01 A3004 RMK A01 T00880013  RH  059%=      5-min Rain = 0
KAM3 161632Z 30006KT 09/01 A3004 RMK A01 T00880011  RH  059%=      5-min Rain = 0
KAM3 161633Z 30006KT 09/01 A3004 RMK A01 T00870012  RH  059%=      5-min Rain = 0
KAM3 161634Z 30005KT 09/01 A3004 RMK A01 T00880012  RH  059%=      5-min Rain = 0
KAM3 161635Z 30004KT 09/01 A3004 RMK A01 T00870012  RH  059%=      5-min Rain = 0
KAM3 161636Z 30004KT 09/01 A3004 RMK A01 T00860011  RH  059%=      5-min Rain = 0
KAM3 161637Z 30004KT 09/01 A3004 RMK A01 T00860012  RH  059%=      5-min Rain = 0
KAM3 161638Z 30005KT 09/01 A3004 RMK A01 T00860012  RH  060%=      5-min Rain = 0
KAM3 161639Z 33005KT 09/01 A3004 RMK A01 T00870012  RH  059%=      5-min Rain = 0
KAM3 161640Z 31006KT 09/01 A3004 RMK A01 T00870012  RH  059%=      5-min Rain = 0
KAM3 161641Z 31005KT 09/01 A3004 RMK A01 T00870011  RH  059%=      5-min Rain = 0
KAM3 161642Z 31003KT 09/01 A3004 RMK A01 T00870011  RH  059%=      5-min Rain = 0
KAM3 161643Z 29004KT 09/01 A3004 RMK A01 T00870012  RH  059%=      5-min Rain = 0
KAM3 161644Z 30002KT 09/01 A3004 RMK A01 T00880012  RH  059%=      5-min Rain = 0
KAM3 161645Z 27003KT 09/01 A3004 RMK A01 T00880012  RH  059%=      5-min Rain = 0
KAM3 161646Z 27003KT 09/01 A3004 RMK A01 T00890012  RH  059%=      5-min Rain = 0
KAM3 161647Z 28003KT 09/01 A3004 RMK A01 T00900012  RH  058%=      5-min Rain = 0
KAM3 161648Z 31003KT 09/01 A3004 RMK A01 T00920014  RH  058%=      5-min Rain = 0
KAM3 161649Z 31004KT 09/01 A3004 RMK A01 T00930014  RH  057%=      5-min Rain = 0
KAM3 161650Z 30004KT 09/01 A3004 RMK A01 T00940013  RH  057%=      5-min Rain = 0
KAM3 161651Z 30003KT 10/02 A3004 RMK A01 T00960016  RH  058%=      5-min Rain = 0
KAM3 161652Z 31005KT 10/02 A3004 RMK A01 T00990016  RH  056%=      5-min Rain = 0
KAM3 161653Z 32003KT 10/01 A3003 RMK A01 T00980013  RH  055%=      5-min Rain = 0
KAM3 161654Z 31003KT 10/01 A3003 RMK A01 T00960012  RH  056%=      5-min Rain = 0
KAM3 161655Z 32004KT 10/01 A3003 RMK A01 T00950013  RH  057%=      5-min Rain = 0
KAM3 161656Z 32004KT 10/02 A3003 RMK A01 T00960015  RH  057%=      5-min Rain = 0
KAM3 161657Z 31004KT 10/02 A3003 RMK A01 T00990016  RH  056%=      5-min Rain = 0
KAM3 161658Z 33005KT 10/02 A3003 RMK A01 T01000015  RH  056%=      5-min Rain = 0
KAM3 161659Z 33006KT 10/02 A3003 RMK A01 T01000015  RH  055%=      5-min Rain = 0
KAM3 161700Z 33005KT 10/02 A3003 RMK A01 T01000015  RH  055%=      5-min Rain = 0
KAM3 161701Z 32005KT 10/02 A3003 RMK A01 T01000015  RH  055%=      5-min Rain = 0
KAM3 161702Z 32003KT 10/02 A3003 RMK A01 T01010016  RH  055%=      5-min Rain = 0
KAM3 161703Z 31003KT 11/02 A3003 RMK A01 T01050019  RH  055%=      5-min Rain = 0
KAM3 161704Z 32003KT 11/02 A3003 RMK A01 T01070017  RH  054%=      5-min Rain = 0
KAM3 161705Z 31004KT 11/02 A3003 RMK A01 T01080017  RH  053%=      5-min Rain = 0
KAM3 161706Z 31004KT 11/02 A3003 RMK A01 T01080017  RH  053%=      5-min Rain = 0
KAM3 161707Z 33004KT 11/02 A3003 RMK A01 T01090017  RH  053%=      5-min Rain = 0
KAM3 161708Z 33006KT 11/02 A3003 RMK A01 T01100017  RH  053%=      5-min Rain = 0
KAM3 161709Z 33004KT 11/02 A3003 RMK A01 T01110016  RH  052%=      5-min Rain = 0
KAM3 161710Z 32005KT 11/02 A3003 RMK A01 T01100017  RH  052%=      5-min Rain = 0
KAM3 161711Z 32005KT 11/02 A3003 RMK A01 T01110016  RH  052%=      5-min Rain = 0
KAM3 161712Z 31006KT 11/02 A3002 RMK A01 T01130019  RH  052%=      5-min Rain = 0
KAM3 161713Z 32005KT 12/02 A3003 RMK A01 T01160021  RH  052%=      5-min Rain = 0
KAM3 161714Z 31004KT 12/02 A3002 RMK A01 T01180020  RH  051%=      5-min Rain = 0
KAM3 161715Z 30004KT 12/02 A3002 RMK A01 T01190019  RH  051%=      5-min Rain = 0
KAM3 161716Z 29005KT 12/02 A3002 RMK A01 T01190019  RH  050%=      5-min Rain = 0
KAM3 161717Z 31005KT 12/02 A3002 RMK A01 T01190019  RH  050%=      5-min Rain = 0
KAM3 161718Z 30005KT 12/02 A3002 RMK A01 T01190019  RH  050%=      5-min Rain = 0
KAM3 161719Z 29006KT 12/02 A3002 RMK A01 T01210021  RH  050%=      5-min Rain = 0
KAM3 161720Z 28007KT 12/02 A3002 RMK A01 T01240020  RH  049%=      5-min Rain = 0
KAM3 161721Z 29007KT 12/02 A3002 RMK A01 T01240020  RH  049%=      5-min Rain = 0
KAM3 161722Z 30007KT 13/02 A3002 RMK A01 T01260022  RH  049%=      5-min Rain = 0
KAM3 161723Z 30007KT 13/02 A3002 RMK A01 T01280022  RH  048%=      5-min Rain = 0
KAM3 161724Z 31008KT 13/02 A3002 RMK A01 T01290022  RH  048%=      5-min Rain = 0
KAM3 161725Z 32007KT 13/02 A3002 RMK A01 T01280021  RH  048%=      5-min Rain = 0
KAM3 161726Z 31006KT 13/02 A3002 RMK A01 T01270020  RH  048%=      5-min Rain = 0
KAM3 161727Z 30007KT 13/02 A3002 RMK A01 T01270020  RH  048%=      5-min Rain = 0
KAM3 161728Z 29005KT 13/02 A3001 RMK A01 T01250021  RH  049%=      5-min Rain = 0
KAM3 161729Z 30006KT 13/02 A3002 RMK A01 T01280024  RH  049%=      5-min Rain = 0
KAM3 161730Z 30005KT 13/02 A3001 RMK A01 T01320023  RH  048%=      5-min Rain = 0
KAM3 161731Z 30004KT 13/02 A3001 RMK A01 T01340024  RH  047%=      5-min Rain = 0
KAM3 161732Z 30005KT 14/02 A3001 RMK A01 T01360023  RH  046%=      5-min Rain = 0
KAM3 161733Z 30007KT 14/02 A3001 RMK A01 T01370023  RH  046%=      5-min Rain = 0
KAM3 161734Z 29008KT 14/02 A3001 RMK A01 T01390023  RH  045%=      5-min Rain = 0
KAM3 161735Z 27005KT 14/02 A3001 RMK A01 T01390022  RH  045%=      5-min Rain = 0
KAM3 161736Z 30008KT 14/02 A3001 RMK A01 T01390023  RH  045%=      5-min Rain = 0
KAM3 161737Z 29009KT 14/02 A3001 RMK A01 T01430024  RH  045%=      5-min Rain = 0
KAM3 161738Z 29011G16KT 15/02 A3001 RMK A01 T01450022  RH  043%=      5-min Rain = 0
KAM3 161739Z 28014KT 15/02 A3001 RMK A01 T01510024  RH  042%=      5-min Rain = 0
KAM3 161740Z 27019G24KT 16/03 A3001 RMK A01 T01620025  RH  040%=      5-min Rain = 0
KAM3 161741Z 26017G22KT 17/02 A3001 RMK A01 T01700023  RH  037%=      5-min Rain = 0
KAM3 161742Z 27014KT 18/02 A3001 RMK A01 T01760024  RH  036%=      5-min Rain = 0
KAM3 161743Z 27022G28KT 18/02 A30 RMK A01 T01810023  RH  035%=      5-min Rain = 0
KAM3 161744Z 27022G29KT 18/02 A30 RMK A01 T01830018  RH  033%=      5-min Rain = 0
KAM3 161745Z 27021G26KT 18/02 A30 RMK A01 T01840019  RH  033%=      5-min Rain = 0
KAM3 161746Z 27020G25KT 19/02 A30 RMK A01 T01850019  RH  033%=      5-min Rain = 0
KAM3 161747Z 26023G33KT 19/02 A30 RMK A01 T01860020  RH  033%=      5-min Rain = 0
KAM3 161748Z 26029KT 19/02 A30 RMK A01 T01870015  RH  032%=      5-min Rain = 0
KAM3 161749Z 26030G35KT 18/01 A30 RMK A01 T01840014  RH  032%=      5-min Rain = 0
KAM3 161750Z 26026KT 18/02 A30 RMK A01 T01820015  RH  032%=      5-min Rain = 0
KAM3 161751Z 26027G32KT 18/02 A30 RMK A01 T01820015  RH  033%=      5-min Rain = 0
KAM3 161752Z 26022G27KT 18/02 A30 RMK A01 T01830016  RH  032%=      5-min Rain = 0
KAM3 161753Z 26024KT 19/02 A30 RMK A01 T01860016  RH  032%=      5-min Rain = 0
KAM3 161754Z 25025G32KT 19/02 A30 RMK A01 T01860016  RH  032%=      5-min Rain = 0
KAM3 161755Z 25026G32KT 19/01 A30 RMK A01 T01860014  RH  031%=      5-min Rain = 0
KAM3 161756Z 26025KT 19/02 A2999 RMK A01 T01860015  RH  032%=      5-min Rain = 0
KAM3 161757Z 27020G27KT 19/02 A30 RMK A01 T01860015  RH  032%=      5-min Rain = 0
KAM3 161758Z 27024KT 19/02 A2999 RMK A01 T01870016  RH  032%=      5-min Rain = 0
KAM3 161759Z 27027G34KT 19/01 A2999 RMK A01 T01870013  RH  031%=      5-min Rain = 0
KAM3 161800Z 27023G29KT 19/01 A2999 RMK A01 T01860012  RH  031%=      5-min Rain = 0
KAM3 161801Z 27024KT 19/01 A2999 RMK A01 T01870013  RH  031%=      5-min Rain = 0
KAM3 161802Z 27022KT 19/01 A2999 RMK A01 T01870013  RH  031%=      5-min Rain = 0
KAM3 161803Z 26023G28KT 19/01 A2999 RMK A01 T01890013  RH  031%=      5-min Rain = 0
KAM3 161804Z 26021G27KT 19/01 A2999 RMK A01 T01900012  RH  030%=      5-min Rain = 0
KAM3 161805Z 27026G33KT 19/01 A2998 RMK A01 T01920011  RH  030%=      5-min Rain = 0
KAM3 161806Z 26025KT 19/01 A2998 RMK A01 T01910009  RH  029%=      5-min Rain = 0
KAM3 161807Z 26026G31KT 19/01 A2998 RMK A01 T01900009  RH  030%=      5-min Rain = 0
KAM3 161808Z 26028G34KT 19/01 A2998 RMK A01 T01900010  RH  030%=      5-min Rain = 0
KAM3 161809Z 26026G33KT 19/01 A2998 RMK A01 T01900010  RH  030%=      5-min Rain = 0
KAM3 161810Z 25021G26KT 19/01 A2998 RMK A01 T01900012  RH  030%=      5-min Rain = 0
KAM3 161811Z 25026G31KT 19/01 A2998 RMK A01 T01930012  RH  030%=      5-min Rain = 0
KAM3 161812Z 26023G32KT 19/01 A2998 RMK A01 T01930011  RH  030%=      5-min Rain = 0
KAM3 161813Z 26025G30KT 19/01 A2998 RMK A01 T01940009  RH  029%=      5-min Rain = 0
KAM3 161814Z 25028G33KT 19/01 A2998 RMK A01 T01930008  RH  029%=      5-min Rain = 0
KAM3 161815Z 25026KT 19/01 A2998 RMK A01 T01920008  RH  029%=      5-min Rain = 0
KAM3 161816Z 25026KT 19/01 A2998 RMK A01 T01920007  RH  029%=      5-min Rain = 0
KAM3 161817Z 25024G30KT 19/01 A2997 RMK A01 T01920008  RH  029%=      5-min Rain = 0
KAM3 161818Z 25027KT 19/01 A2997 RMK A01 T01930008  RH  029%=      5-min Rain = 0
KAM3 161819Z 25029G35KT 19/01 A2997 RMK A01 T01940005  RH  028%=      5-min Rain = 0
KAM3 161820Z 26024G29KT 19/01 A2997 RMK A01 T01940005  RH  028%=      5-min Rain = 0
KAM3 161821Z 25024G29KT 20/01 A2997 RMK A01 T01950007  RH  028%=      5-min Rain = 0
KAM3 161822Z 25024G30KT 20/01 A2997 RMK A01 T01960006  RH  028%=      5-min Rain = 0
KAM3 161823Z 25025G31KT 20/00 A2997 RMK A01 T01970004  RH  028%=      5-min Rain = 0
KAM3 161824Z 26026KT 20/00 A2997 RMK A01 T01960004  RH  028%=      5-min Rain = 0
KAM3 161825Z 26023G29KT 20/01 A2997 RMK A01 T01950006  RH  028%=      5-min Rain = 0
KAM3 161826Z 26022KT 20/01 A2997 RMK A01 T01970007  RH  028%=      5-min Rain = 0
KAM3 161827Z 26024KT 20/01 A2996 RMK A01 T01980007  RH  028%=      5-min Rain = 0
KAM3 161828Z 26022KT 20/01 A2996 RMK A01 T01970007  RH  028%=      5-min Rain = 0
KAM3 161829Z 26026KT 20/01 A2996 RMK A01 T01980008  RH  028%=      5-min Rain = 0
KAM3 161830Z 26025G30KT 20/01 A2996 RMK A01 T01980008  RH  028%=      5-min Rain = 0
KAM3 161831Z 25020G25KT 20/01 A2996 RMK A01 T01980010  RH  028%=      5-min Rain = 0
KAM3 161832Z 26026G31KT 20/01 A2996 RMK A01 T02010008  RH  028%=      5-min Rain = 0
KAM3 161833Z 26028G36KT 20/00 A2996 RMK A01 T02010003  RH  027%=      5-min Rain = 0
KAM3 161834Z 26029G35KT 20/00 A2996 RMK A01 T01990002  RH  027%=      5-min Rain = 0
KAM3 161835Z 26024KT 20/00 A2996 RMK A01 T01980002  RH  027%=      5-min Rain = 0
KAM3 161836Z 26025G30KT 20/00 A2996 RMK A01 T01990002  RH  027%=      5-min Rain = 0
KAM3 161837Z 26027G33KT 20/M00 A2996 RMK A01 T02001001  RH  026%=      5-min Rain = 0
KAM3 161838Z 26026G31KT 20/00 A2995 RMK A01 T01980000  RH  026%=      5-min Rain = 0
KAM3 161839Z 26022G32KT 20/00 A2995 RMK A01 T01980002  RH  027%=      5-min Rain = 0
KAM3 161840Z 26024KT 20/00 A2996 RMK A01 T01980004  RH  027%=      5-min Rain = 0
KAM3 161841Z 25019KT 20/01 A2995 RMK A01 T01990007  RH  028%=      5-min Rain = 0
KAM3 161842Z 24025G30KT 20/01 A2995 RMK A01 T02020011  RH  028%=      5-min Rain = 0
KAM3 161843Z 25024G31KT 20/01 A2995 RMK A01 T02020011  RH  028%=      5-min Rain = 0
KAM3 161844Z 24018G23KT 20/01 A2995 RMK A01 T02010013  RH  028%=      5-min Rain = 0
KAM3 161845Z 24023G30KT 20/01 A2995 RMK A01 T02040011  RH  028%=      5-min Rain = 0
KAM3 161846Z 24026KT 20/01 A2995 RMK A01 T02040010  RH  027%=      5-min Rain = 0
KAM3 161847Z 24026G32KT 20/01 A2995 RMK A01 T02020009  RH  028%=      5-min Rain = 0
KAM3 161848Z 24023KT 20/01 A2995 RMK A01 T02020010  RH  028%=      5-min Rain = 0
KAM3 161849Z 24027KT 20/01 A2995 RMK A01 T02020010  RH  028%=      5-min Rain = 0
KAM3 161850Z 24028KT 20/01 A2994 RMK A01 T02010009  RH  028%=      5-min Rain = 0
KAM3 161851Z 25026G31KT 20/01 A2994 RMK A01 T02000008  RH  028%=      5-min Rain = 0
KAM3 161852Z 24027G32KT 20/01 A2994 RMK A01 T01990008  RH  028%=      5-min Rain = 0
KAM3 161853Z 25023KT 20/01 A2994 RMK A01 T01990007  RH  028%=      5-min Rain = 0
KAM3 161854Z 25026G32KT 20/01 A2994 RMK A01 T02010007  RH  027%=      5-min Rain = 0
KAM3 161855Z 24026G31KT 20/01 A2994 RMK A01 T02020006  RH  027%=      5-min Rain = 0
KAM3 161856Z 24026KT 20/01 A2994 RMK A01 T02010007  RH  027%=      5-min Rain = 0
KAM3 161857Z 24026KT 20/01 A2994 RMK A01 T01990008  RH  028%=      5-min Rain = 0
KAM3 161858Z 25027KT 20/01 A2994 RMK A01 T01980008  RH  028%=      5-min Rain = 0
KAM3 161859Z 25022G28KT 20/01 A2994 RMK A01 T01980008  RH  028%=      5-min Rain = 0
KAM3 161900Z 24025KT 20/01 A2994 RMK A01 T02000010  RH  028%=      5-min Rain = 0
KAM3 161901Z 24028G34KT 20/01 A2993 RMK A01 T02030009  RH  027%=      5-min Rain = 0
KAM3 161902Z 25024G29KT 20/01 A2993 RMK A01 T02020008  RH  027%=      5-min Rain = 0
KAM3 161903Z 25028G33KT 20/01 A2993 RMK A01 T02020008  RH  027%=      5-min Rain = 0
KAM3 161904Z 24030KT 20/01 A2993 RMK A01 T02010005  RH  027%=      5-min Rain = 0
KAM3 161905Z 24025G31KT 20/00 A2993 RMK A01 T01990004  RH  027%=      5-min Rain = 0
KAM3 161906Z 24025G31KT 20/00 A2993 RMK A01 T01980004  RH  027%=      5-min Rain = 0
KAM3 161907Z 24024G30KT 20/00 A2993 RMK A01 T02010004  RH  027%=      5-min Rain = 0
KAM3 161908Z 25026G32KT 20/00 A2993 RMK A01 T02030002  RH  026%=      5-min Rain = 0
KAM3 161909Z 25025G30KT 20/M00 A2993 RMK A01 T02021001  RH  026%=      5-min Rain = 0
KAM3 161910Z 25026G34KT 20/M00 A2993 RMK A01 T02001002  RH  026%=      5-min Rain = 0
KAM3 161911Z 25025KT 20/00 A2993 RMK A01 T02000001  RH  026%=      5-min Rain = 0
KAM3 161912Z 25029G34KT 20/00 A2993 RMK A01 T02010000  RH  026%=      5-min Rain = 0
KAM3 161913Z 25026KT 20/M00 A2993 RMK A01 T01991001  RH  026%=      5-min Rain = 0
KAM3 161914Z 26026KT 20/M00 A2993 RMK A01 T01981001  RH  026%=      5-min Rain = 0
KAM3 161915Z 25026G31KT 20/00 A2993 RMK A01 T01990001  RH  027%=      5-min Rain = 0
KAM3 161916Z 24028G33KT 20/00 A2992 RMK A01 T02000002  RH  026%=      5-min Rain = 0
KAM3 161917Z 24026G32KT 20/00 A2993 RMK A01 T02000001  RH  026%=      5-min Rain = 0
KAM3 161918Z 24026G32KT 20/00 A2992 RMK A01 T02000001  RH  026%=      5-min Rain = 0
KAM3 161919Z 24026G31KT 20/00 A2992 RMK A01 T02000001  RH  026%=      5-min Rain = 0
KAM3 161920Z 25027G35KT 20/00 A2992 RMK A01 T02000001  RH  026%=      5-min Rain = 0
KAM3 161921Z 26030KT 20/00 A2992 RMK A01 T02010000  RH  026%=      5-min Rain = 0
KAM3 161922Z 26027KT 20/00 A2992 RMK A01 T01990001  RH  027%=      5-min Rain = 0
KAM3 161923Z 26027KT 20/00 A2992 RMK A01 T01980001  RH  027%=      5-min Rain = 0
KAM3 161924Z 25022G27KT 20/00 A2992 RMK A01 T01980002  RH  027%=      5-min Rain = 0
KAM3 161925Z 25023G29KT 20/00 A2992 RMK A01 T02010003  RH  027%=      5-min Rain = 0
KAM3 161926Z 26022G27KT 20/00 A2992 RMK A01 T02020001  RH  026%=      5-min Rain = 0
KAM3 161927Z 26024G29KT 20/00 A2992 RMK A01 T02020002  RH  026%=      5-min Rain = 0
KAM3 161928Z 24022G29KT 20/00 A2992 RMK A01 T02020002  RH  026%=      5-min Rain = 0
KAM3 161929Z 24022KT 20/00 A2992 RMK A01 T02030001  RH  026%=      5-min Rain = 0
KAM3 161930Z 25022G28KT 20/00 A2992 RMK A01 T02040001  RH  026%=      5-min Rain = 0
KAM3 161931Z 25027G33KT 21/00 A2992 RMK A01 T02050003  RH  026%=      5-min Rain = 0
KAM3 161932Z 25027G32KT 20/00 A2992 RMK A01 T020400-0  RH  025%=      5-min Rain = 0
KAM3 161933Z 25026G31KT 20/M00 A2991 RMK A01 T02021001  RH  026%=      5-min Rain = 0
KAM3 161934Z 25026G31KT 20/M00 A2991 RMK A01 T02021002  RH  025%=      5-min Rain = 0
KAM3 161935Z 25022KT 20/00 A2991 RMK A01 T020100-0  RH  026%=      5-min Rain = 0
KAM3 161936Z 25026G31KT 20/00 A2991 RMK A01 T02020002  RH  026%=      5-min Rain = 0
KAM3 161937Z 25023KT 20/00 A2991 RMK A01 T02020002  RH  026%=      5-min Rain = 0
KAM3 161938Z 25024G31KT 20/00 A2991 RMK A01 T02030003  RH  026%=      5-min Rain = 0
KAM3 161939Z 25025G30KT 20/00 A2991 RMK A01 T02040002  RH  026%=      5-min Rain = 0
KAM3 161940Z 24023G30KT 20/00 A2991 RMK A01 T02030003  RH  026%=      5-min Rain = 0
KAM3 161941Z 24022G28KT 21/00 A2991 RMK A01 T02050003  RH  026%=      5-min Rain = 0
KAM3 161942Z 23024G31KT 21/00 A2991 RMK A01 T02070003  RH  026%=      5-min Rain = 0
KAM3 161943Z 24026G33KT 21/00 A2991 RMK A01 T02080002  RH  025%=      5-min Rain = 0
KAM3 161944Z 24029KT 21/00 A2991 RMK A01 T02060000  RH  025%=      5-min Rain = 0
KAM3 161945Z 24026G31KT 20/00 A2991 RMK A01 T02020001  RH  026%=      5-min Rain = 0
KAM3 161946Z 24027KT 20/M00 A2991 RMK A01 T02021001  RH  026%=      5-min Rain = 0
KAM3 161947Z 24027G36KT 20/M00 A299 RMK A01 T02021002  RH  025%=      5-min Rain = 0
KAM3 161948Z 24026KT 20/M00 A299 RMK A01 T02011001  RH  026%=      5-min Rain = 0
KAM3 161949Z 25027G32KT 20/M00 A299 RMK A01 T02011002  RH  026%=      5-min Rain = 0
KAM3 161950Z 25029G34KT 20/M00 A299 RMK A01 T02011001  RH  026%=      5-min Rain = 0
KAM3 161951Z 24027G32KT 20/M00 A299 RMK A01 T02011001  RH  026%=      5-min Rain = 0
KAM3 161952Z 24027G32KT 20/M00 A299 RMK A01 T02011001  RH  026%=      5-min Rain = 0
KAM3 161953Z 24026G33KT 20/M00 A299 RMK A01 T02011001  RH  026%=      5-min Rain = 0
KAM3 161954Z 24026G31KT 20/M00 A299 RMK A01 T02011001  RH  026%=      5-min Rain = 0
KAM3 161955Z 24025KT 20/00 A299 RMK A01 T02010001  RH  026%=      5-min Rain = 0
KAM3 161956Z 24024G29KT 20/00 A299 RMK A01 T02010001  RH  026%=      5-min Rain = 0
KAM3 161957Z 24020G27KT 20/00 A299 RMK A01 T02010003  RH  027%=      5-min Rain = 0
KAM3 161958Z 25025G31KT 20/00 A299 RMK A01 T02030003  RH  026%=      5-min Rain = 0
KAM3 161959Z 24021G28KT 21/00 A299 RMK A01 T02050003  RH  026%=      5-min Rain = 0
KAM3 162000Z 24023KT 21/00 A299 RMK A01 T02070003  RH  026%=      5-min Rain = 0
KAM3 162001Z 24029KT 21/M00 A299 RMK A01 T02071001  RH  025%=      5-min Rain = 0
KAM3 162002Z 24030G36KT 21/M00 A299 RMK A01 T02061002  RH  025%=      5-min Rain = 0
KAM3 162003Z 24029KT 20/M00 A299 RMK A01 T02041001  RH  025%=      5-min Rain = 0
KAM3 162004Z 24025G31KT 20/00 A299 RMK A01 T02020001  RH  026%=      5-min Rain = 0
KAM3 162005Z 25022KT 20/00 A299 RMK A01 T02020002  RH  026%=      5-min Rain = 0
KAM3 162006Z 25020KT 21/00 A299 RMK A01 T02050003  RH  026%=      5-min Rain = 0
KAM3 162007Z 26024G33KT 21/00 A299 RMK A01 T020900-0  RH  025%=      5-min Rain = 0
KAM3 162008Z 25026G32KT 21/M01 A299 RMK A01 T02091005  RH  024%=      5-min Rain = 0
KAM3 162009Z 25019G26KT 21/M00 A299 RMK A01 T02071004  RH  024%=      5-min Rain = 0
KAM3 162010Z 26020G25KT 21/M00 A299 RMK A01 T02081003  RH  024%=      5-min Rain = 0
KAM3 162011Z 25024G29KT 21/M00 A299 RMK A01 T02101001  RH  024%=      5-min Rain = 0
KAM3 162012Z 25025G31KT 21/M01 A299 RMK A01 T02091005  RH  024%=      5-min Rain = 0
KAM3 162013Z 26023G30KT 21/M00 A299 RMK A01 T02051004  RH  025%=      5-min Rain = 0
KAM3 162014Z 24024G31KT 21/M00 A299 RMK A01 T02051002  RH  025%=      5-min Rain = 0
KAM3 162015Z 24031KT 21/M00 A299 RMK A01 T02051003  RH  025%=      5-min Rain = 0
KAM3 162016Z 24028G36KT 20/M01 A299 RMK A01 T02041005  RH  025%=      5-min Rain = 0
KAM3 162017Z 24028KT 20/M01 A299 RMK A01 T02021006  RH  025%=      5-min Rain = 0
KAM3 162018Z 24024G30KT 20/M00 A299 RMK A01 T02021004  RH  025%=      5-min Rain = 0
KAM3 162019Z 24025G30KT 20/M00 A299 RMK A01 T02031004  RH  025%=      5-min Rain = 0
KAM3 162020Z 24029G34KT 20/M01 A299 RMK A01 T02041005  RH  024%=      5-min Rain = 0
KAM3 162021Z 24026G35KT 20/M01 A299 RMK A01 T02021006  RH  025%=      5-min Rain = 0
KAM3 162022Z 25026G33KT 20/M01 A299 RMK A01 T02021005  RH  025%=      5-min Rain = 0
KAM3 162023Z 26026KT 20/M01 A299 RMK A01 T02031005  RH  025%=      5-min Rain = 0
KAM3 162024Z 25027G35KT 20/M01 A299 RMK A01 T02031007  RH  024%=      5-min Rain = 0
KAM3 162025Z 25023G30KT 20/M01 A299 RMK A01 T02031008  RH  024%=      5-min Rain = 0
KAM3 162026Z 25027G32KT 20/M01 A299 RMK A01 T02041005  RH  025%=      5-min Rain = 0
KAM3 162027Z 25027G33KT 20/M00 A299 RMK A01 T02041003  RH  025%=      5-min Rain = 0
KAM3 162028Z 25025G33KT 20/M00 A299 RMK A01 T02041002  RH  025%=      5-min Rain = 0
KAM3 162029Z 25031KT 20/00 A299 RMK A01 T020300-0  RH  026%=      5-min Rain = 0
KAM3 162030Z 26032KT 20/M00 A299 RMK A01 T02021002  RH  025%=      5-min Rain = 0
KAM3 162031Z 26028G35KT 20/M00 A299 RMK A01 T02011003  RH  026%=      5-min Rain = 0
KAM3 162032Z 25027G34KT 20/M00 A299 RMK A01 T02001003  RH  026%=      5-min Rain = 0
KAM3 162033Z 25024KT 20/M00 A299 RMK A01 T02011003  RH  025%=      5-min Rain = 0
KAM3 162034Z 26024G30KT 20/M01 A299 RMK A01 T02021005  RH  025%=      5-min Rain = 0
KAM3 162035Z 26027G32KT 20/M00 A299 RMK A01 T02021004  RH  025%=      5-min Rain = 0
KAM3 162036Z 26030KT 20/M00 A299 RMK A01 T02021003  RH  025%=      5-min Rain = 0
KAM3 162037Z 25026KT 20/M00 A299 RMK A01 T02001001  RH  026%=      5-min Rain = 0
KAM3 162038Z 25026KT 20/00 A299 RMK A01 T02000001  RH  026%=      5-min Rain = 0
KAM3 162039Z 24032KT 20/00 A299 RMK A01 T02000002  RH  027%=      5-min Rain = 0
KAM3 162040Z 24029KT 20/00 A299 RMK A01 T01990001  RH  026%=      5-min Rain = 0
KAM3 162041Z 26031G36KT 20/M00 A299 RMK A01 T02001001  RH  026%=      5-min Rain = 0
KAM3 162042Z 25028KT 20/M00 A299 RMK A01 T01991003  RH  026%=      5-min Rain = 0
KAM3 162043Z 25026KT 20/M00 A299 RMK A01 T02001003  RH  026%=      5-min Rain = 0
KAM3 162044Z 26027G33KT 20/M01 A299 RMK A01 T02011006  RH  025%=      5-min Rain = 0
KAM3 162045Z 26027KT 20/M01 A299 RMK A01 T02001008  RH  025%=      5-min Rain = 0
KAM3 162046Z 26025KT 20/M01 A299 RMK A01 T01991008  RH  025%=      5-min Rain = 0
KAM3 162047Z 26024KT 20/M01 A299 RMK A01 T01991007  RH  025%=      5-min Rain = 0
KAM3 162048Z 26020G27KT 20/M01 A299 RMK A01 T02001005  RH  025%=      5-min Rain = 0
KAM3 162049Z 25020G26KT 20/M00 A299 RMK A01 T02031002  RH  025%=      5-min Rain = 0
KAM3 162050Z 25023G34KT 21/M00 A299 RMK A01 T02061001  RH  025%=      5-min Rain = 0
KAM3 162051Z 24029G34KT 21/M00 A299 RMK A01 T02071003  RH  025%=      5-min Rain = 0
KAM3 162052Z 24028G35KT 20/M00 A299 RMK A01 T02041003  RH  025%=      5-min Rain = 0
KAM3 162053Z 24029G35KT 20/M00 A299 RMK A01 T02021003  RH  025%=      5-min Rain = 0
KAM3 162054Z 24027G34KT 20/M00 A299 RMK A01 T02011002  RH  026%=      5-min Rain = 0
KAM3 162055Z 25027G33KT 20/M00 A299 RMK A01 T02001001  RH  026%=      5-min Rain = 0
KAM3 162056Z 26022G27KT 20/00 A299 RMK A01 T020100-0  RH  026%=      5-min Rain = 0
KAM3 162057Z 26023KT 20/00 A299 RMK A01 T02030000  RH  026%=      5-min Rain = 0
KAM3 162058Z 26023G30KT 20/00 A299 RMK A01 T02030001  RH  026%=      5-min Rain = 0
KAM3 162059Z 25024G31KT 20/00 A299 RMK A01 T02030001  RH  026%=      5-min Rain = 0
KAM3 162100Z 25032KT 20/M00 A299 RMK A01 T02031001  RH  025%=      5-min Rain = 0
KAM3 162101Z 25033KT 20/M00 A299 RMK A01 T02001004  RH  025%=      5-min Rain = 0
KAM3 162102Z 25027G36KT 20/M01 A299 RMK A01 T01971005  RH  026%=      5-min Rain = 0
KAM3 162103Z 25028G34KT 20/M00 A299 RMK A01 T01971004  RH  026%=      5-min Rain = 0
KAM3 162104Z 25023G30KT 20/M00 A299 RMK A01 T01981003  RH  026%=      5-min Rain = 0
KAM3 162105Z 25023KT 20/M00 A299 RMK A01 T02001001  RH  026%=      5-min Rain = 0
KAM3 162106Z 25025KT 20/00 A299 RMK A01 T02010000  RH  026%=      5-min Rain = 0
KAM3 162107Z 26021G27KT 20/00 A299 RMK A01 T02010001  RH  026%=      5-min Rain = 0
KAM3 162108Z 25021G26KT 20/00 A299 RMK A01 T02010001  RH  026%=      5-min Rain = 0
KAM3 162109Z 26022G31KT 20/00 A299 RMK A01 T02030003  RH  026%=      5-min Rain = 0
KAM3 162110Z 25028G33KT 20/00 A299 RMK A01 T02040002  RH  026%=      5-min Rain = 0
KAM3 162111Z 25028KT 20/M00 A299 RMK A01 T02031001  RH  026%=      5-min Rain = 0
KAM3 162112Z 25025KT 20/M00 A299 RMK A01 T02001002  RH  026%=      5-min Rain = 0
KAM3 162113Z 24027G32KT 20/M00 A299 RMK A01 T02001002  RH  026%=      5-min Rain = 0
KAM3 162114Z 24028G33KT 20/M00 A299 RMK A01 T02001001  RH  026%=      5-min Rain = 0
KAM3 162115Z 25027KT 20/M00 A299 RMK A01 T02011002  RH  026%=      5-min Rain = 0
KAM3 162116Z 24018KT 20/M00 A299 RMK A01 T02001001  RH  026%=      5-min Rain = 0
KAM3 162117Z 25024G31KT 20/00 A299 RMK A01 T02020001  RH  026%=      5-min Rain = 0
KAM3 162118Z 24027G34KT 20/00 A299 RMK A01 T02040000  RH  026%=      5-min Rain = 0
KAM3 162119Z 24022G28KT 20/M00 A299 RMK A01 T02041001  RH  025%=      5-min Rain = 0
KAM3 162120Z 25025G35KT 21/00 A299 RMK A01 T02050000  RH  025%=      5-min Rain = 0
KAM3 162121Z 25028KT 20/M00 A299 RMK A01 T02041001  RH  025%=      5-min Rain = 0
KAM3 162122Z 25023KT 20/M00 A299 RMK A01 T02021001  RH  026%=      5-min Rain = 0
KAM3 162123Z 25022KT 20/00 A299 RMK A01 T020100-0  RH  026%=      5-min Rain = 0
KAM3 162124Z 24025G30KT 20/M00 A299 RMK A01 T02011001  RH  026%=      5-min Rain = 0
KAM3 162125Z 24024G30KT 20/M00 A299 RMK A01 T02011001  RH  026%=      5-min Rain = 0
KAM3 162126Z 25023G29KT 20/M00 A299 RMK A01 T02021001  RH  026%=      5-min Rain = 0
KAM3 162127Z 25022G29KT 20/00 A299 RMK A01 T020200-0  RH  026%=      5-min Rain = 0
KAM3 162128Z 25026G31KT 20/M00 A299 RMK A01 T02031001  RH  026%=      5-min Rain = 0
KAM3 162129Z 25024KT 20/00 A299 RMK A01 T020200-0  RH  026%=      5-min Rain = 0
KAM3 162130Z 26025KT 20/00 A299 RMK A01 T02020002  RH  026%=      5-min Rain = 0
KAM3 162131Z 26024KT 20/00 A299 RMK A01 T02010003  RH  026%=      5-min Rain = 0
KAM3 162132Z 26022KT 20/00 A299 RMK A01 T02010003  RH  027%=      5-min Rain = 0
KAM3 162133Z 24026KT 20/00 A299 RMK A01 T02010003  RH  026%=      5-min Rain = 0
KAM3 162134Z 24024G29KT 20/00 A299 RMK A01 T02010001  RH  026%=      5-min Rain = 0
KAM3 162135Z 24024G29KT 20/00 A299 RMK A01 T02010000  RH  026%=      5-min Rain = 0
KAM3 162136Z 24026KT 20/00 A299 RMK A01 T020100-0  RH  026%=      5-min Rain = 0
KAM3 162137Z 24023KT 20/00 A299 RMK A01 T020100-0  RH  026%=      5-min Rain = 0
KAM3 162138Z 24020KT 20/00 A299 RMK A01 T02020000  RH  026%=      5-min Rain = 0
KAM3 162139Z 24024G35KT 20/00 A299 RMK A01 T02040001  RH  026%=      5-min Rain = 0
KAM3 162140Z 24027G33KT 20/M00 A2989 RMK A01 T02041003  RH  025%=      5-min Rain = 0
KAM3 162141Z 25025G30KT 20/M00 A2989 RMK A01 T02021004  RH  025%=      5-min Rain = 0
KAM3 162142Z 24025G32KT 20/M01 A2989 RMK A01 T02021005  RH  025%=      5-min Rain = 0
KAM3 162143Z 24025G30KT 20/M01 A2989 RMK A01 T02011007  RH  025%=      5-min Rain = 0
KAM3 162144Z 24029KT 20/M01 A2989 RMK A01 T02001006  RH  025%=      5-min Rain = 0
KAM3 162145Z 25028KT 20/M01 A2989 RMK A01 T02001005  RH  025%=      5-min Rain = 0
KAM3 162146Z 25027KT 20/M01 A299 RMK A01 T02001006  RH  025%=      5-min Rain = 0
KAM3 162147Z 25027G32KT 20/M01 A299 RMK A01 T01991006  RH  025%=      5-min Rain = 0
KAM3 162148Z 25026KT 20/M01 A299 RMK A01 T01991007  RH  025%=      5-min Rain = 0
KAM3 162149Z 26027KT 20/M01 A299 RMK A01 T01981008  RH  025%=      5-min Rain = 0
KAM3 162150Z 26026G31KT 20/M01 A299 RMK A01 T01971008  RH  025%=      5-min Rain = 0
KAM3 162151Z 25022KT 20/M01 A299 RMK A01 T01971007  RH  025%=      5-min Rain = 0
KAM3 162152Z 25026G32KT 20/M01 A299 RMK A01 T01981006  RH  025%=      5-min Rain = 0
KAM3 162153Z 25027KT 20/M01 A299 RMK A01 T01981005  RH  026%=      5-min Rain = 0
KAM3 162154Z 24022KT 20/M00 A299 RMK A01 T01971004  RH  026%=      5-min Rain = 0
KAM3 162155Z 25025G30KT 20/M00 A299 RMK A01 T01981004  RH  026%=      5-min Rain = 0
KAM3 162156Z 25024G32KT 20/M01 A299 RMK A01 T01981005  RH  025%=      5-min Rain = 0
KAM3 162157Z 24026G34KT 20/M01 A299 RMK A01 T01981005  RH  025%=      5-min Rain = 0
KAM3 162158Z 24024G29KT 20/M01 A299 RMK A01 T01971006  RH  026%=      5-min Rain = 0
KAM3 162159Z 25023G28KT 20/M01 A299 RMK A01 T01971005  RH  026%=      5-min Rain = 0
KAM3 162200Z 26024KT 20/M00 A299 RMK A01 T01981004  RH  026%=      5-min Rain = 0
KAM3 162201Z 26020G25KT 20/M00 A299 RMK A01 T01981004  RH  026%=      5-min Rain = 0
KAM3 162202Z 26025KT 20/M00 A299 RMK A01 T01991003  RH  026%=      5-min Rain = 0
KAM3 162203Z 25023G29KT 20/M00 A299 RMK A01 T01981002  RH  026%=      5-min Rain = 0
KAM3 162204Z 24024G32KT 20/M00 A299 RMK A01 T01981001  RH  026%=      5-min Rain = 0
KAM3 162205Z 24024KT 20/M00 A299 RMK A01 T01981001  RH  026%=      5-min Rain = 0
KAM3 162206Z 24025KT 20/M00 A299 RMK A01 T01971002  RH  026%=      5-min Rain = 0
KAM3 162207Z 24026G34KT 20/M00 A299 RMK A01 T01961003  RH  026%=      5-min Rain = 0
KAM3 162208Z 24027G32KT 20/M00 A299 RMK A01 T01961002  RH  026%=      5-min Rain = 0
KAM3 162209Z 24025G31KT 20/M00 A299 RMK A01 T01951002  RH  026%=      5-min Rain = 0
KAM3 162210Z 24025G31KT 20/M00 A299 RMK A01 T01951003  RH  026%=      5-min Rain = 0
KAM3 162211Z 25022G28KT 20/M00 A299 RMK A01 T01951003  RH  026%=      5-min Rain = 0
KAM3 162212Z 25021G27KT 20/M00 A299 RMK A01 T01961003  RH  026%=      5-min Rain = 0
KAM3 162213Z 25020G25KT 20/M00 A2991 RMK A01 T01971004  RH  026%=      5-min Rain = 0
KAM3 162214Z 26018G24KT 20/M00 A299 RMK A01 T01981004  RH  026%=      5-min Rain = 0
KAM3 162215Z 26022G28KT 20/M00 A299 RMK A01 T01981004  RH  026%=      5-min Rain = 0
KAM3 162216Z 25022G27KT 20/M01 A299 RMK A01 T01971006  RH  025%=      5-min Rain = 0
KAM3 162217Z 25026G31KT 20/M01 A299 RMK A01 T01961006  RH  026%=      5-min Rain = 0
KAM3 162218Z 24021G26KT 20/M01 A299 RMK A01 T01951007  RH  025%=      5-min Rain = 0
KAM3 162219Z 24025G32KT 20/M01 A299 RMK A01 T01951007  RH  026%=      5-min Rain = 0
KAM3 162220Z 25023KT 20/M01 A299 RMK A01 T01951007  RH  026%=      5-min Rain = 0
KAM3 162221Z 25022KT 20/M01 A2991 RMK A01 T01951007  RH  026%=      5-min Rain = 0
KAM3 162222Z 25022KT 20/M01 A2991 RMK A01 T01951008  RH  026%=      5-min Rain = 0
KAM3 162223Z 26019G24KT 19/M01 A2991 RMK A01 T01941008  RH  025%=      5-min Rain = 0
KAM3 162224Z 26023G28KT 20/M01 A299 RMK A01 T01951008  RH  026%=      5-min Rain = 0
KAM3 162225Z 26022KT 19/M01 A2991 RMK A01 T01941007  RH  026%=      5-min Rain = 0
KAM3 162226Z 25023KT 19/M01 A299 RMK A01 T01941006  RH  026%=      5-min Rain = 0
KAM3 162227Z 25019KT 19/M01 A2991 RMK A01 T01941006  RH  026%=      5-min Rain = 0
KAM3 162228Z 25019KT 19/M01 A2991 RMK A01 T01941005  RH  026%=      5-min Rain = 0
KAM3 162229Z 26019G26KT 19/M01 A2991 RMK A01 T01941005  RH  026%=      5-min Rain = 0
KAM3 162230Z 26020G26KT 20/M01 A299 RMK A01 T01951005  RH  026%=      5-min Rain = 0
KAM3 162231Z 26020KT 19/M00 A299 RMK A01 T01941004  RH  026%=      5-min Rain = 0
KAM3 162232Z 26022KT 19/M00 A299 RMK A01 T01931004  RH  026%=      5-min Rain = 0
KAM3 162233Z 26021G27KT 19/M00 A299 RMK A01 T01921004  RH  027%=      5-min Rain = 0
KAM3 162234Z 25020KT 19/M01 A299 RMK A01 T01931005  RH  026%=      5-min Rain = 0
KAM3 162235Z 25021KT 19/M01 A299 RMK A01 T01931005  RH  026%=      5-min Rain = 0
KAM3 162236Z 25019G24KT 19/M01 A299 RMK A01 T01931005  RH  026%=      5-min Rain = 0
KAM3 162237Z 25016KT 19/M00 A299 RMK A01 T01931004  RH  027%=      5-min Rain = 0
KAM3 162238Z 25017KT 19/M00 A299 RMK A01 T01941003  RH  027%=      5-min Rain = 0
KAM3 162239Z 24020KT 19/M00 A299 RMK A01 T01941002  RH  027%=      5-min Rain = 0
KAM3 162240Z 24019KT 19/M00 A299 RMK A01 T01941002  RH  027%=      5-min Rain = 0
KAM3 162241Z 23018KT 19/M00 A299 RMK A01 T01941002  RH  027%=      5-min Rain = 0
KAM3 162242Z 24023G29KT 19/M00 A299 RMK A01 T01931003  RH  027%=      5-min Rain = 0
KAM3 162243Z 24021KT 19/M00 A299 RMK A01 T01931003  RH  027%=      5-min Rain = 0
KAM3 162244Z 24023G29KT 19/M00 A299 RMK A01 T01921004  RH  027%=      5-min Rain = 0
KAM3 162245Z 25022G27KT 19/M01 A299 RMK A01 T01921005  RH  026%=      5-min Rain = 0
KAM3 162246Z 25019KT 19/M01 A299 RMK A01 T01911005  RH  027%=      5-min Rain = 0
KAM3 162247Z 25019G25KT 19/M01 A299 RMK A01 T01911005  RH  027%=      5-min Rain = 0
KAM3 162248Z 25023KT 19/M01 A299 RMK A01 T01911005  RH  027%=      5-min Rain = 0
KAM3 162249Z 25021G27KT 19/M01 A299 RMK A01 T01911005  RH  027%=      5-min Rain = 0
KAM3 162250Z 26021KT 19/M01 A299 RMK A01 T01911005  RH  027%=      5-min Rain = 0
KAM3 162251Z 25021G27KT 19/M01 A2991 RMK A01 T01901005  RH  027%=      5-min Rain = 0
KAM3 162252Z 26018G23KT 19/M00 A2991 RMK A01 T01911004  RH  027%=      5-min Rain = 0
KAM3 162253Z 26018KT 19/M00 A2991 RMK A01 T01901004  RH  027%=      5-min Rain = 0
KAM3 162254Z 25017G22KT 19/M00 A2991 RMK A01 T01901004  RH  027%=      5-min Rain = 0
KAM3 162255Z 25020KT 19/M00 A2991 RMK A01 T01891004  RH  027%=      5-min Rain = 0
KAM3 162256Z 24019KT 19/M01 A2991 RMK A01 T01891005  RH  027%=      5-min Rain = 0
KAM3 162257Z 24018G23KT 19/M00 A2991 RMK A01 T01901004  RH  027%=      5-min Rain = 0
KAM3 162258Z 24021G26KT 19/M01 A299 RMK A01 T01891005  RH  027%=      5-min Rain = 0
KAM3 162259Z 25019KT 19/M01 A2991 RMK A01 T01891005  RH  027%=      5-min Rain = 0
KAM3 162300Z 24021G27KT 19/M01 A2991 RMK A01 T01881005  RH  027%=      5-min Rain = 0
KAM3 162301Z 25021KT 19/M00 A2991 RMK A01 T01881004  RH  027%=      5-min Rain = 0
KAM3 162302Z 25023KT 19/M00 A299 RMK A01 T01881004  RH  027%=      5-min Rain = 0
KAM3 162303Z 25018KT 19/M00 A299 RMK A01 T01881004  RH  027%=      5-min Rain = 0
KAM3 162304Z 25021G29KT 19/M00 A299 RMK A01 T01881003  RH  028%=      5-min Rain = 0
KAM3 162305Z 25023G28KT 19/M00 A299 RMK A01 T01881003  RH  028%=      5-min Rain = 0
KAM3 162306Z 25021G30KT 19/M00 A299 RMK A01 T01871004  RH  028%=      5-min Rain = 0
KAM3 162307Z 26022KT 19/M00 A299 RMK A01 T01871004  RH  028%=      5-min Rain = 0
KAM3 162308Z 26019KT 19/M00 A299 RMK A01 T01871003  RH  028%=      5-min Rain = 0
KAM3 162309Z 26020KT 19/M00 A299 RMK A01 T01861003  RH  028%=      5-min Rain = 0
KAM3 162310Z 26019KT 19/M00 A299 RMK A01 T01861004  RH  028%=      5-min Rain = 0
KAM3 162311Z 25019KT 19/M00 A299 RMK A01 T01861003  RH  028%=      5-min Rain = 0
KAM3 162312Z 25017G22KT 19/M00 A299 RMK A01 T01861003  RH  028%=      5-min Rain = 0
KAM3 162313Z 25021KT 19/M00 A299 RMK A01 T01851003  RH  028%=      5-min Rain = 0
KAM3 162314Z 25019G24KT 19/M00 A299 RMK A01 T01851003  RH  028%=      5-min Rain = 0
KAM3 162315Z 25020KT 19/M00 A299 RMK A01 T01851002  RH  028%=      5-min Rain = 0
KAM3 162316Z 25022KT 19/M00 A299 RMK A01 T01851002  RH  028%=      5-min Rain = 0
KAM3 162317Z 25020KT 18/M00 A299 RMK A01 T01841001  RH  029%=      5-min Rain = 0
KAM3 162318Z 25015KT 18/M00 A299 RMK A01 T01841001  RH  029%=      5-min Rain = 0
KAM3 162319Z 25016KT 18/M00 A299 RMK A01 T01841001  RH  029%=      5-min Rain = 0
KAM3 162320Z 25015KT 18/M00 A299 RMK A01 T01831001  RH  029%=      5-min Rain = 0
KAM3 162321Z 25014KT 18/M00 A299 RMK A01 T01821001  RH  029%=      5-min Rain = 0
KAM3 162322Z 25016KT 18/M00 A299 RMK A01 T01821001  RH  029%=      5-min Rain = 0
KAM3 162323Z 25020G25KT 18/00 A299 RMK A01 T018200-0  RH  029%=      5-min Rain = 0
KAM3 162324Z 25017KT 18/00 A299 RMK A01 T01820000  RH  029%=      5-min Rain = 0
KAM3 162325Z 25024KT 18/00 A299 RMK A01 T01810000  RH  030%=      5-min Rain = 0
KAM3 162326Z 25021KT 18/00 A299 RMK A01 T01810001  RH  030%=      5-min Rain = 0
KAM3 162327Z 25018G23KT 18/00 A299 RMK A01 T01810001  RH  030%=      5-min Rain = 0
KAM3 162328Z 25017KT 18/00 A299 RMK A01 T01800001  RH  030%=      5-min Rain = 0
KAM3 162329Z 25016KT 18/00 A299 RMK A01 T01790001  RH  030%=      5-min Rain = 0
KAM3 162330Z 25017KT 18/00 A299 RMK A01 T01790001  RH  030%=      5-min Rain = 0
KAM3 162331Z 25018G23KT 18/00 A299 RMK A01 T01780001  RH  030%=      5-min Rain = 0
KAM3 162332Z 25018KT 18/00 A299 RMK A01 T01780001  RH  030%=      5-min Rain = 0
KAM3 162333Z 25018KT 18/00 A299 RMK A01 T01780001  RH  030%=      5-min Rain = 0
KAM3 162334Z 24017KT 18/00 A299 RMK A01 T01780001  RH  030%=      5-min Rain = 0
KAM3 162335Z 25015KT 18/00 A299 RMK A01 T01770000  RH  030%=      5-min Rain = 0
KAM3 162336Z 25016G21KT 18/00 A299 RMK A01 T01760000  RH  030%=      5-min Rain = 0
KAM3 162337Z 25018KT 18/00 A299 RMK A01 T01760001  RH  031%=      5-min Rain = 0
KAM3 162338Z 25018KT 18/00 A299 RMK A01 T01750001  RH  031%=      5-min Rain = 0
KAM3 162339Z 24016G21KT 18/00 A299 RMK A01 T01750000  RH  031%=      5-min Rain = 0
KAM3 162340Z 24018KT 18/00 A299 RMK A01 T01750000  RH  031%=      5-min Rain = 0
KAM3 162341Z 24016KT 18/00 A299 RMK A01 T01750001  RH  031%=      5-min Rain = 0
KAM3 162342Z 25015KT 17/00 A299 RMK A01 T01740000  RH  031%=      5-min Rain = 0
KAM3 162343Z 25014KT 17/00 A299 RMK A01 T01730000  RH  031%=      5-min Rain = 0
KAM3 162344Z 25015KT 17/00 A299 RMK A01 T01720000  RH  031%=      5-min Rain = 0
KAM3 162345Z 25016KT 17/00 A299 RMK A01 T01710000  RH  031%=      5-min Rain = 0
KAM3 162346Z 25019KT 17/00 A299 RMK A01 T017000-0  RH  032%=      5-min Rain = 0
KAM3 162347Z 25015KT 17/00 A2991 RMK A01 T01700000  RH  032%=      5-min Rain = 0
KAM3 162348Z 25014KT 17/00 A2991 RMK A01 T017000-0  RH  032%=      5-min Rain = 0
KAM3 162349Z 25017KT 17/00 A299 RMK A01 T016800-0  RH  032%=      5-min Rain = 0
KAM3 162350Z 25016G21KT 17/00 A2991 RMK A01 T016800-0  RH  032%=      5-min Rain = 0
KAM3 162351Z 25014KT 17/M00 A2991 RMK A01 T01681001  RH  032%=      5-min Rain = 0
KAM3 162352Z 25014KT 17/M00 A2991 RMK A01 T01671001  RH  032%=      5-min Rain = 0
KAM3 162353Z 25015KT 17/M00 A2991 RMK A01 T01661002  RH  032%=      5-min Rain = 0
KAM3 162354Z 25017KT 17/M00 A2991 RMK A01 T01651002  RH  032%=      5-min Rain = 0
KAM3 162355Z 25016KT 17/M00 A2991 RMK A01 T01651003  RH  032%=      5-min Rain = 0
KAM3 162356Z 25016KT 16/M00 A2991 RMK A01 T01641003  RH  032%=      5-min Rain = 0
KAM3 162357Z 25013KT 17/M00 A2991 RMK A01 T01651003  RH  032%=      5-min Rain = 0
KAM3 162358Z 25013KT 16/M00 A2991 RMK A01 T01631003  RH  032%=      5-min Rain = 0
KAM3 162359Z 25016KT 16/M00 A2991 RMK A01 T01621002  RH  033%=      5-min Rain = 0
KAM3 170000Z 25014KT 16/M00 A2991 RMK A01 T01621003  RH  033%=      5-min Rain = 0
KAM3 170001Z 25016KT 16/M00 A2991 RMK A01 T01621003  RH  033%=      5-min Rain = 0
KAM3 170002Z 25016KT 16/M00 A2991 RMK A01 T01621003  RH  033%=      5-min Rain = 0
KAM3 170003Z 25014KT 16/M00 A2991 RMK A01 T01621003  RH  033%=      5-min Rain = 0
KAM3 170004Z 25013KT 16/M00 A2991 RMK A01 T01611003  RH  033%=      5-min Rain = 0
KAM3 170005Z 24013KT 16/M00 A2991 RMK A01 T01601003  RH  033%=      5-min Rain = 0
KAM3 170006Z 24013KT 16/M00 A2991 RMK A01 T01591003  RH  033%=      5-min Rain = 0
KAM3 170007Z 25013KT 16/M00 A2991 RMK A01 T01571003  RH  033%=      5-min Rain = 0
KAM3 170008Z 24014KT 16/M00 A2991 RMK A01 T01561003  RH  034%=      5-min Rain = 0
KAM3 170009Z 24013KT 16/M00 A2991 RMK A01 T01551003  RH  034%=      5-min Rain = 0
KAM3 170010Z 24013KT 16/M00 A2991 RMK A01 T01551003  RH  034%=      5-min Rain = 0
KAM3 170011Z 24015KT 15/M00 A2991 RMK A01 T01541003  RH  034%=      5-min Rain = 0
KAM3 170012Z 25017KT 15/M00 A2991 RMK A01 T01541004  RH  034%=      5-min Rain = 0
KAM3 170013Z 25017KT 16/M01 A2991 RMK A01 T01561005  RH  033%=      5-min Rain = 0
KAM3 170014Z 25019KT 16/M01 A2991 RMK A01 T01571006  RH  033%=      5-min Rain = 0
KAM3 170015Z 25018KT 16/M01 A2991 RMK A01 T01571006  RH  033%=      5-min Rain = 0
KAM3 170016Z 25016KT 16/M01 A2992 RMK A01 T01571007  RH  033%=      5-min Rain = 0
KAM3 170017Z 25016KT 16/M01 A2992 RMK A01 T01561007  RH  033%=      5-min Rain = 0
KAM3 170018Z 25018KT 16/M01 A2992 RMK A01 T01551007  RH  033%=      5-min Rain = 0
KAM3 170019Z 25016KT 16/M01 A2992 RMK A01 T01561007  RH  033%=      5-min Rain = 0
KAM3 170020Z 25017KT 16/M01 A2992 RMK A01 T01551008  RH  033%=      5-min Rain = 0
KAM3 170021Z 25018G24KT 16/M01 A2992 RMK A01 T01551008  RH  033%=      5-min Rain = 0
KAM3 170022Z 25016KT 16/M01 A2992 RMK A01 T01551008  RH  033%=      5-min Rain = 0
KAM3 170023Z 25018G23KT 16/M01 A2992 RMK A01 T01551008  RH  033%=      5-min Rain = 0
KAM3 170024Z 25022KT 16/M01 A2992 RMK A01 T01551009  RH  033%=      5-min Rain = 0
KAM3 170025Z 25022G29KT 16/M01 A2992 RMK A01 T01561009  RH  032%=      5-min Rain = 0
KAM3 170026Z 25023G28KT 16/M01 A2992 RMK A01 T01571009  RH  032%=      5-min Rain = 0
KAM3 170027Z 25019KT 16/M01 A2992 RMK A01 T01581009  RH  032%=      5-min Rain = 0
KAM3 170028Z 25020KT 16/M01 A2992 RMK A01 T01571010  RH  032%=      5-min Rain = 0
KAM3 170029Z 25020KT 16/M01 A2992 RMK A01 T01571009  RH  032%=      5-min Rain = 0
KAM3 170030Z 25020KT 16/M01 A2992 RMK A01 T01561010  RH  032%=      5-min Rain = 0
KAM3 170031Z 25018KT 16/M01 A2992 RMK A01 T01561009  RH  032%=      5-min Rain = 0
KAM3 170032Z 25018G23KT 16/M01 A2992 RMK A01 T01561009  RH  032%=      5-min Rain = 0
KAM3 170033Z 25018KT 16/M01 A2992 RMK A01 T01551009  RH  032%=      5-min Rain = 0
KAM3 170034Z 25017KT 15/M01 A2992 RMK A01 T01541009  RH  033%=      5-min Rain = 0
KAM3 170035Z 25017KT 15/M01 A2992 RMK A01 T01531008  RH  033%=      5-min Rain = 0
KAM3 170036Z 25017KT 15/M01 A2992 RMK A01 T01521008  RH  033%=      5-min Rain = 0
KAM3 170037Z 25018G23KT 15/M01 A2992 RMK A01 T01521008  RH  033%=      5-min Rain = 0
KAM3 170038Z 25020KT 15/M01 A2992 RMK A01 T01521008  RH  033%=      5-min Rain = 0
KAM3 170039Z 25019KT 15/M01 A2992 RMK A01 T01511008  RH  033%=      5-min Rain = 0
KAM3 170040Z 25018KT 15/M01 A2992 RMK A01 T01511008  RH  033%=      5-min Rain = 0
KAM3 170041Z 25019KT 15/M01 A2992 RMK A01 T01521008  RH  033%=      5-min Rain = 0
KAM3 170042Z 25020KT 15/M01 A2992 RMK A01 T01521009  RH  033%=      5-min Rain = 0
KAM3 170043Z 25017KT 15/M01 A2992 RMK A01 T01511009  RH  033%=      5-min Rain = 0
KAM3 170044Z 25017KT 15/M01 A2993 RMK A01 T01501009  RH  034%=      5-min Rain = 0
KAM3 170045Z 25019KT 15/M01 A2993 RMK A01 T01491009  RH  034%=      5-min Rain = 0
KAM3 170046Z 25017G23KT 15/M01 A2993 RMK A01 T01491009  RH  034%=      5-min Rain = 0
KAM3 170047Z 24020G27KT 15/M01 A2993 RMK A01 T01491008  RH  034%=      5-min Rain = 0
KAM3 170048Z 24017KT 15/M01 A2993 RMK A01 T01501009  RH  034%=      5-min Rain = 0
KAM3 170049Z 25019KT 15/M01 A2993 RMK A01 T01501009  RH  034%=      5-min Rain = 0
KAM3 170050Z 25017KT 15/M01 A2993 RMK A01 T01501009  RH  034%=      5-min Rain = 0
KAM3 170051Z 24015KT 15/M01 A2993 RMK A01 T01491009  RH  034%=      5-min Rain = 0
KAM3 170052Z 25017KT 15/M01 A2993 RMK A01 T01471009  RH  034%=      5-min Rain = 0
KAM3 170053Z 25017KT 15/M01 A2993 RMK A01 T01471009  RH  034%=      5-min Rain = 0
KAM3 170054Z 25014KT 15/M01 A2993 RMK A01 T01471009  RH  034%=      5-min Rain = 0
KAM3 170055Z 25017KT 15/M01 A2993 RMK A01 T01461010  RH  034%=      5-min Rain = 0
KAM3 170056Z 25018KT 15/M01 A2993 RMK A01 T01451009  RH  035%=      5-min Rain = 0
KAM3 170057Z 25017KT 15/M01 A2993 RMK A01 T01461009  RH  035%=      5-min Rain = 0
KAM3 170058Z 24019KT 15/M01 A2993 RMK A01 T01451009  RH  034%=      5-min Rain = 0
KAM3 170059Z 25016KT 15/M01 A2993 RMK A01 T01451009  RH  035%=      5-min Rain = 0
KAM3 170100Z 24017G22KT 15/M01 A2993 RMK A01 T01451010  RH  035%=      5-min Rain = 0
KAM3 170101Z 25019KT 14/M01 A2993 RMK A01 T01441010  RH  035%=      5-min Rain = 0
KAM3 170102Z 25017G22KT 15/M01 A2993 RMK A01 T01451009  RH  035%=      5-min Rain = 0
KAM3 170103Z 25017G22KT 14/M01 A2993 RMK A01 T01441010  RH  035%=      5-min Rain = 0
KAM3 170104Z 25018KT 14/M01 A2993 RMK A01 T01441009  RH  035%=      5-min Rain = 0
KAM3 170105Z 25016KT 14/M01 A2993 RMK A01 T01441009  RH  035%=      5-min Rain = 0
KAM3 170106Z 25020G25KT 14/M01 A2993 RMK A01 T01431009  RH  035%=      5-min Rain = 0
KAM3 170107Z 25021G26KT 14/M01 A2993 RMK A01 T01441009  RH  035%=      5-min Rain = 0
KAM3 170108Z 25017KT 14/M01 A2993 RMK A01 T01441009  RH  035%=      5-min Rain = 0
KAM3 170109Z 25018KT 14/M01 A2993 RMK A01 T01441009  RH  035%=      5-min Rain = 0
KAM3 170110Z 25017KT 14/M01 A2994 RMK A01 T01431009  RH  035%=      5-min Rain = 0
KAM3 170111Z 25018KT 14/M01 A2994 RMK A01 T01421009  RH  035%=      5-min Rain = 0
KAM3 170112Z 25019KT 14/M01 A2994 RMK A01 T01421009  RH  035%=      5-min Rain = 0
KAM3 170113Z 25018KT 14/M01 A2994 RMK A01 T01421009  RH  035%=      5-min Rain = 0
KAM3 170114Z 25017KT 14/M01 A2994 RMK A01 T01421009  RH  035%=      5-min Rain = 0
KAM3 170115Z 25020KT 14/M01 A2994 RMK A01 T01421009  RH  035%=      5-min Rain = 0
KAM3 170116Z 25018KT 14/M01 A2994 RMK A01 T01411009  RH  035%=      5-min Rain = 0
KAM3 170117Z 25017G22KT 14/M01 A2994 RMK A01 T01411009  RH  036%=      5-min Rain = 0
KAM3 170118Z 25017KT 14/M01 A2994 RMK A01 T01411009  RH  036%=      5-min Rain = 0
KAM3 170119Z 25018KT 14/M01 A2994 RMK A01 T01411009  RH  036%=      5-min Rain = 0
KAM3 170120Z 25018KT 14/M01 A2994 RMK A01 T01411009  RH  036%=      5-min Rain = 0
KAM3 170121Z 25018KT 14/M01 A2994 RMK A01 T01411009  RH  036%=      5-min Rain = 0
KAM3 170122Z 25019G24KT 14/M01 A2994 RMK A01 T01401009  RH  036%=      5-min Rain = 0
KAM3 170123Z 25020G25KT 14/M01 A2994 RMK A01 T01401009  RH  036%=      5-min Rain = 0
KAM3 170124Z 24017G22KT 14/M01 A2994 RMK A01 T01411009  RH  036%=      5-min Rain = 0
KAM3 170125Z 25016KT 14/M01 A2994 RMK A01 T01411009  RH  036%=      5-min Rain = 0
KAM3 170126Z 25017KT 14/M01 A2994 RMK A01 T01401009  RH  036%=      5-min Rain = 0
KAM3 170127Z 25018KT 14/M01 A2994 RMK A01 T01391009  RH  036%=      5-min Rain = 0
KAM3 170128Z 25017KT 14/M01 A2994 RMK A01 T01391009  RH  036%=      5-min Rain = 0
KAM3 170129Z 25017KT 14/M01 A2994 RMK A01 T01381009  RH  036%=      5-min Rain = 0
KAM3 170130Z 25018KT 14/M01 A2994 RMK A01 T01381009  RH  036%=      5-min Rain = 0
KAM3 170131Z 25018KT 14/M01 A2994 RMK A01 T01381009  RH  036%=      5-min Rain = 0
KAM3 170132Z 25017G22KT 14/M01 A2994 RMK A01 T01381009  RH  036%=      5-min Rain = 0
KAM3 170133Z 25017KT 14/M01 A2994 RMK A01 T01381009  RH  036%=      5-min Rain = 0
KAM3 170134Z 25016KT 14/M01 A2994 RMK A01 T01381009  RH  036%=      5-min Rain = 0
KAM3 170135Z 25017G22KT 14/M01 A2994 RMK A01 T01361009  RH  037%=      5-min Rain = 0
KAM3 170136Z 25018KT 14/M01 A2994 RMK A01 T01361009  RH  037%=      5-min Rain = 0
KAM3 170137Z 25016KT 14/M01 A2994 RMK A01 T01361009  RH  037%=      5-min Rain = 0
KAM3 170138Z 25017KT 14/M01 A2994 RMK A01 T01351009  RH  037%=      5-min Rain = 0
KAM3 170139Z 25016G21KT 14/M01 A2994 RMK A01 T01351009  RH  037%=      5-min Rain = 0
KAM3 170140Z 25018KT 14/M01 A2994 RMK A01 T01351008  RH  037%=      5-min Rain = 0
KAM3 170141Z 25017KT 14/M01 A2994 RMK A01 T01351008  RH  037%=      5-min Rain = 0
KAM3 170142Z 25017KT 14/M01 A2994 RMK A01 T01351008  RH  037%=      5-min Rain = 0
KAM3 170143Z 25017KT 14/M01 A2994 RMK A01 T01351008  RH  037%=      5-min Rain = 0
KAM3 170144Z 25018KT 13/M01 A2994 RMK A01 T01341008  RH  037%=      5-min Rain = 0
KAM3 170145Z 25016KT 14/M01 A2994 RMK A01 T01351008  RH  037%=      5-min Rain = 0
KAM3 170146Z 25016KT 13/M01 A2994 RMK A01 T01341008  RH  037%=      5-min Rain = 0
KAM3 170147Z 25018G23KT 14/M01 A2994 RMK A01 T01351008  RH  037%=      5-min Rain = 0
KAM3 170148Z 25019KT 13/M01 A2994 RMK A01 T01341008  RH  038%=      5-min Rain = 0
KAM3 170149Z 25017KT 14/M01 A2994 RMK A01 T01351008  RH  037%=      5-min Rain = 0
KAM3 170150Z 25018G23KT 14/M01 A2994 RMK A01 T01351008  RH  037%=      5-min Rain = 0
KAM3 170151Z 25017KT 14/M01 A2995 RMK A01 T01351008  RH  037%=      5-min Rain = 0
KAM3 170152Z 25017KT 14/M01 A2995 RMK A01 T01351008  RH  037%=      5-min Rain = 0
KAM3 170153Z 25018KT 14/M01 A2994 RMK A01 T01351007  RH  038%=      5-min Rain = 0
KAM3 170154Z 25018KT 14/M01 A2995 RMK A01 T01351007  RH  037%=      5-min Rain = 0
KAM3 170155Z 25018G23KT 14/M01 A2995 RMK A01 T01351008  RH  037%=      5-min Rain = 0
KAM3 170156Z 25017KT 14/M01 A2995 RMK A01 T01351007  RH  037%=      5-min Rain = 0
KAM3 170157Z 25017KT 14/M01 A2995 RMK A01 T01351008  RH  038%=      5-min Rain = 0
KAM3 170158Z 25016KT 13/M01 A2995 RMK A01 T01341008  RH  038%=      5-min Rain = 0
KAM3 170159Z 25016KT 13/M01 A2995 RMK A01 T01331008  RH  038%=      5-min Rain = 0
KAM3 170200Z 25015KT 13/M01 A2995 RMK A01 T01331007  RH  038%=      5-min Rain = 0
KAM3 170201Z 25019KT 13/M01 A2995 RMK A01 T01321007  RH  038%=      5-min Rain = 0
KAM3 170202Z 25018G23KT 13/M01 A2995 RMK A01 T01331007  RH  038%=      5-min Rain = 0
KAM3 170203Z 25016G21KT 13/M01 A2995 RMK A01 T01341007  RH  038%=      5-min Rain = 0
KAM3 170204Z 25018KT 13/M01 A2995 RMK A01 T01331007  RH  038%=      5-min Rain = 0
KAM3 170205Z 25016KT 13/M01 A2995 RMK A01 T01331007  RH  038%=      5-min Rain = 0
KAM3 170206Z 26017KT 13/M01 A2995 RMK A01 T01321007  RH  038%=      5-min Rain = 0
KAM3 170207Z 26018KT 13/M01 A2995 RMK A01 T01311007  RH  038%=      5-min Rain = 0
KAM3 170208Z 26020KT 13/M01 A2995 RMK A01 T01321007  RH  038%=      5-min Rain = 0
KAM3 170209Z 26021KT 13/M01 A2995 RMK A01 T01331006  RH  038%=      5-min Rain = 0
KAM3 170210Z 25019KT 13/M01 A2995 RMK A01 T01341006  RH  038%=      5-min Rain = 0
KAM3 170211Z 26022KT 13/M01 A2995 RMK A01 T01341006  RH  038%=      5-min Rain = 0
KAM3 170212Z 26021KT 13/M01 A2995 RMK A01 T01341006  RH  038%=      5-min Rain = 0
KAM3 170213Z 26022KT 13/M01 A2995 RMK A01 T01341007  RH  038%=      5-min Rain = 0
KAM3 170214Z 26019KT 14/M01 A2995 RMK A01 T01351006  RH  038%=      5-min Rain = 0
KAM3 170215Z 26021KT 14/M01 A2995 RMK A01 T01351006  RH  038%=      5-min Rain = 0
KAM3 170216Z 26023KT 13/M01 A2995 RMK A01 T01341006  RH  038%=      5-min Rain = 0
KAM3 170217Z 26021G26KT 14/M01 A2995 RMK A01 T01351006  RH  038%=      5-min Rain = 0
KAM3 170218Z 26018G23KT 13/M01 A2995 RMK A01 T01341007  RH  038%=      5-min Rain = 0
KAM3 170219Z 26020KT 13/M01 A2995 RMK A01 T01341006  RH  038%=      5-min Rain = 0
KAM3 170220Z 26020KT 13/M01 A2995 RMK A01 T01321007  RH  038%=      5-min Rain = 0
KAM3 170221Z 26023KT 13/M01 A2995 RMK A01 T01331007  RH  038%=      5-min Rain = 0
KAM3 170222Z 26020KT 13/M01 A2995 RMK A01 T01331007  RH  038%=      5-min Rain = 0
KAM3 170223Z 26019G25KT 13/M01 A2995 RMK A01 T01331007  RH  038%=      5-min Rain = 0
KAM3 170224Z 26022KT 13/M01 A2995 RMK A01 T01331007  RH  038%=      5-min Rain = 0
KAM3 170225Z 26019KT 13/M01 A2996 RMK A01 T01331007  RH  038%=      5-min Rain = 0
KAM3 170226Z 26021KT 13/M01 A2996 RMK A01 T01321007  RH  038%=      5-min Rain = 0
KAM3 170227Z 26021KT 13/M01 A2995 RMK A01 T01321007  RH  038%=      5-min Rain = 0
KAM3 170228Z 26020G25KT 13/M01 A2996 RMK A01 T01321007  RH  038%=      5-min Rain = 0
KAM3 170229Z 26020KT 13/M01 A2996 RMK A01 T01321007  RH  038%=      5-min Rain = 0
KAM3 170230Z 26019KT 13/M01 A2996 RMK A01 T01311007  RH  038%=      5-min Rain = 0
KAM3 170231Z 26018KT 13/M01 A2996 RMK A01 T01311007  RH  039%=      5-min Rain = 0
KAM3 170232Z 26020G25KT 13/M01 A2996 RMK A01 T01311007  RH  039%=      5-min Rain = 0
KAM3 170233Z 26020KT 13/M01 A2996 RMK A01 T01301007  RH  039%=      5-min Rain = 0
KAM3 170234Z 26017G22KT 13/M01 A2996 RMK A01 T01301007  RH  039%=      5-min Rain = 0
KAM3 170235Z 26021KT 13/M01 A2996 RMK A01 T01301007  RH  039%=      5-min Rain = 0
KAM3 170236Z 26019KT 13/M01 A2996 RMK A01 T01301007  RH  039%=      5-min Rain = 0
KAM3 170237Z 26019KT 13/M01 A2996 RMK A01 T01301007  RH  039%=      5-min Rain = 0
KAM3 170238Z 26018KT 13/M01 A2996 RMK A01 T01301008  RH  039%=      5-min Rain = 0
KAM3 170239Z 26018G23KT 13/M01 A2996 RMK A01 T01291008  RH  039%=      5-min Rain = 0
KAM3 170240Z 26018KT 13/M01 A2996 RMK A01 T01291008  RH  039%=      5-min Rain = 0
KAM3 170241Z 26021KT 13/M01 A2996 RMK A01 T01291009  RH  039%=      5-min Rain = 0
KAM3 170242Z 26018G23KT 13/M01 A2996 RMK A01 T01291008  RH  039%=      5-min Rain = 0
KAM3 170243Z 26021KT 13/M01 A2996 RMK A01 T01291009  RH  038%=      5-min Rain = 0
KAM3 170244Z 27019KT 13/M01 A2996 RMK A01 T01301009  RH  038%=      5-min Rain = 0
KAM3 170245Z 26020KT 13/M01 A2996 RMK A01 T01301010  RH  038%=      5-min Rain = 0
KAM3 170246Z 26017KT 13/M01 A2996 RMK A01 T01301010  RH  038%=      5-min Rain = 0
KAM3 170247Z 26019G24KT 13/M01 A2996 RMK A01 T01301010  RH  038%=      5-min Rain = 0
KAM3 170248Z 26019KT 13/M01 A2996 RMK A01 T01291010  RH  038%=      5-min Rain = 0
KAM3 170249Z 26021G26KT 13/M01 A2996 RMK A01 T01291010  RH  038%=      5-min Rain = 0
KAM3 170250Z 26020KT 13/M01 A2997 RMK A01 T01301010  RH  038%=      5-min Rain = 0
KAM3 170251Z 26018KT 13/M01 A2997 RMK A01 T01311010  RH  038%=      5-min Rain = 0
KAM3 170252Z 27016G21KT 13/M01 A2997 RMK A01 T01301011  RH  038%=      5-min Rain = 0
KAM3 170253Z 27019KT 13/M01 A2997 RMK A01 T01291011  RH  038%=      5-min Rain = 0
KAM3 170254Z 27019KT 13/M01 A2997 RMK A01 T01291010  RH  038%=      5-min Rain = 0
KAM3 170255Z 27017KT 13/M01 A2997 RMK A01 T01291010  RH  038%=      5-min Rain = 0
KAM3 170256Z 27018KT 13/M01 A2997 RMK A01 T01291011  RH  038%=      5-min Rain = 0
KAM3 170257Z 26018G23KT 13/M01 A2997 RMK A01 T01281011  RH  038%=      5-min Rain = 0
KAM3 170258Z 27020G27KT 13/M01 A2997 RMK A01 T01281011  RH  038%=      5-min Rain = 0
KAM3 170259Z 26017KT 13/M01 A2997 RMK A01 T01291011  RH  038%=      5-min Rain = 0
KAM3 170300Z 26017KT 13/M01 A2997 RMK A01 T01281011  RH  038%=      5-min Rain = 0
KAM3 170301Z 27019KT 13/M01 A2997 RMK A01 T01271011  RH  038%=      5-min Rain = 0
KAM3 170302Z 26016KT 13/M01 A2997 RMK A01 T01271011  RH  038%=      5-min Rain = 0
KAM3 170303Z 27017G23KT 13/M01 A2997 RMK A01 T01261011  RH  039%=      5-min Rain = 0
KAM3 170304Z 26019KT 13/M01 A2997 RMK A01 T01261011  RH  039%=      5-min Rain = 0
KAM3 170305Z 26018KT 13/M01 A2997 RMK A01 T01271011  RH  039%=      5-min Rain = 0
KAM3 170306Z 26018KT 13/M01 A2997 RMK A01 T01271011  RH  038%=      5-min Rain = 0
KAM3 170307Z 26016KT 13/M01 A2998 RMK A01 T01271011  RH  039%=      5-min Rain = 0
KAM3 170308Z 26019KT 13/M01 A2997 RMK A01 T01261011  RH  039%=      5-min Rain = 0
KAM3 170309Z 27016G21KT 13/M01 A2998 RMK A01 T01261011  RH  039%=      5-min Rain = 0
KAM3 170310Z 26017KT 13/M01 A2997 RMK A01 T01251011  RH  039%=      5-min Rain = 0
KAM3 170311Z 27017G22KT 13/M01 A2997 RMK A01 T01251011  RH  039%=      5-min Rain = 0
KAM3 170312Z 27017KT 13/M01 A2998 RMK A01 T01251011  RH  039%=      5-min Rain = 0
KAM3 170313Z 27017KT 13/M01 A2998 RMK A01 T01251011  RH  039%=      5-min Rain = 0
KAM3 170314Z 27015KT 13/M01 A2998 RMK A01 T01251011  RH  039%=      5-min Rain = 0
KAM3 170315Z 27017KT 12/M01 A2998 RMK A01 T01231011  RH  039%=      5-min Rain = 0
KAM3 170316Z 27017KT 12/M01 A2998 RMK A01 T01231011  RH  039%=      5-min Rain = 0
KAM3 170317Z 27018KT 12/M01 A2998 RMK A01 T01241011  RH  039%=      5-min Rain = 0
KAM3 170318Z 27015KT 13/M01 A2998 RMK A01 T01251010  RH  039%=      5-min Rain = 0
KAM3 170319Z 27015G21KT 12/M01 A2998 RMK A01 T01241011  RH  039%=      5-min Rain = 0
KAM3 170320Z 27015G20KT 12/M01 A2998 RMK A01 T01231011  RH  040%=      5-min Rain = 0
KAM3 170321Z 27017KT 12/M01 A2998 RMK A01 T01221011  RH  040%=      5-min Rain = 0
KAM3 170322Z 27015KT 12/M01 A2998 RMK A01 T01221010  RH  040%=      5-min Rain = 0
KAM3 170323Z 27014KT 12/M01 A2998 RMK A01 T01221010  RH  040%=      5-min Rain = 0
KAM3 170324Z 28016KT 12/M01 A2998 RMK A01 T01211010  RH  040%=      5-min Rain = 0
KAM3 170325Z 27014KT 12/M01 A2998 RMK A01 T01211010  RH  040%=      5-min Rain = 0
KAM3 170326Z 28014KT 12/M01 A2998 RMK A01 T01201010  RH  041%=      5-min Rain = 0
KAM3 170327Z 27015KT 12/M01 A2998 RMK A01 T01191010  RH  041%=      5-min Rain = 0
KAM3 170328Z 28014KT 12/M01 A2998 RMK A01 T01191009  RH  041%=      5-min Rain = 0
KAM3 170329Z 28013KT 12/M01 A2998 RMK A01 T01191010  RH  041%=      5-min Rain = 0
KAM3 170330Z 28013G18KT 12/M01 A2998 RMK A01 T01181010  RH  041%=      5-min Rain = 0
KAM3 170331Z 28015KT 12/M01 A2999 RMK A01 T01171009  RH  042%=      5-min Rain = 0
KAM3 170332Z 28015KT 12/M01 A2999 RMK A01 T01171009  RH  042%=      5-min Rain = 0
KAM3 170333Z 28014KT 12/M01 A2999 RMK A01 T01181009  RH  042%=      5-min Rain = 0
KAM3 170334Z 28015KT 12/M01 A2999 RMK A01 T01171009  RH  042%=      5-min Rain = 0
KAM3 170335Z 28013KT 12/M01 A2999 RMK A01 T01171009  RH  042%=      5-min Rain = 0
KAM3 170336Z 28012KT 12/M01 A2999 RMK A01 T01171009  RH  042%=      5-min Rain = 0
KAM3 170337Z 28013KT 12/M01 A2999 RMK A01 T01161009  RH  042%=      5-min Rain = 0
KAM3 170338Z 28014KT 12/M01 A2999 RMK A01 T01161008  RH  042%=      5-min Rain = 0
KAM3 170339Z 28013KT 12/M01 A2999 RMK A01 T01161008  RH  042%=      5-min Rain = 0
KAM3 170340Z 28013KT 12/M01 A2999 RMK A01 T01151008  RH  042%=      5-min Rain = 0
KAM3 170341Z 28013KT 11/M01 A2999 RMK A01 T01141008  RH  043%=      5-min Rain = 0
KAM3 170342Z 28013KT 11/M01 A2999 RMK A01 T01141008  RH  043%=      5-min Rain = 0
KAM3 170343Z 28013KT 11/M01 A2999 RMK A01 T01131008  RH  043%=      5-min Rain = 0
KAM3 170344Z 28012KT 11/M01 A2999 RMK A01 T01131008  RH  043%=      5-min Rain = 0
KAM3 170345Z 28013KT 11/M01 A2999 RMK A01 T01121008  RH  043%=      5-min Rain = 0
KAM3 170346Z 28012KT 11/M01 A2999 RMK A01 T01121008  RH  044%=      5-min Rain = 0
KAM3 170347Z 28011KT 11/M01 A2999 RMK A01 T01111008  RH  044%=      5-min Rain = 0
KAM3 170348Z 28012KT 11/M01 A2999 RMK A01 T01101008  RH  044%=      5-min Rain = 0
KAM3 170349Z 28012KT 11/M01 A2999 RMK A01 T01091008  RH  044%=      5-min Rain = 0
KAM3 170350Z 28013KT 11/M01 A2999 RMK A01 T01091008  RH  044%=      5-min Rain = 0
KAM3 170351Z 28012KT 11/M01 A2999 RMK A01 T01091008  RH  044%=      5-min Rain = 0
KAM3 170352Z 28013KT 11/M01 A2999 RMK A01 T01091008  RH  044%=      5-min Rain = 0
KAM3 170353Z 28012KT 11/M01 A30 RMK A01 T01091008  RH  044%=      5-min Rain = 0
KAM3 170354Z 28012G17KT 11/M01 A30 RMK A01 T01081008  RH  044%=      5-min Rain = 0
KAM3 170355Z 28011KT 11/M01 A30 RMK A01 T01071008  RH  045%=      5-min Rain = 0
KAM3 170356Z 28012KT 11/M01 A30 RMK A01 T01061009  RH  045%=      5-min Rain = 0
KAM3 170357Z 28012G17KT 11/M01 A30 RMK A01 T01061008  RH  045%=      5-min Rain = 0
KAM3 170358Z 28013KT 11/M01 A30 RMK A01 T01061008  RH  045%=      5-min Rain = 0
KAM3 170359Z 28013KT 11/M01 A30 RMK A01 T01071007  RH  045%=      5-min Rain = 0
KAM3 170400Z 28012KT 11/M01 A30 RMK A01 T01071008  RH  045%=      5-min Rain = 0
KAM3 170401Z 28013KT 11/M01 A30 RMK A01 T01071008  RH  045%=      5-min Rain = 0
KAM3 170402Z 28013KT 11/M01 A3001 RMK A01 T01071008  RH  045%=      5-min Rain = 0
KAM3 170403Z 28014KT 11/M01 A3001 RMK A01 T01071008  RH  045%=      5-min Rain = 0
KAM3 170404Z 28017KT 11/M01 A3001 RMK A01 T01071008  RH  045%=      5-min Rain = 0
KAM3 170405Z 28014KT 11/M01 A3001 RMK A01 T01091007  RH  045%=      5-min Rain = 0
KAM3 170406Z 28012KT 11/M01 A3001 RMK A01 T01091008  RH  044%=      5-min Rain = 0
KAM3 170407Z 28013KT 11/M01 A3001 RMK A01 T01071009  RH  045%=      5-min Rain = 0
KAM3 170408Z 28012KT 11/M01 A3001 RMK A01 T01071009  RH  045%=      5-min Rain = 0
KAM3 170409Z 28013KT 11/M01 A3001 RMK A01 T01061009  RH  045%=      5-min Rain = 0
KAM3 170410Z 28012KT 11/M01 A3001 RMK A01 T01051009  RH  045%=      5-min Rain = 0
KAM3 170411Z 28014KT 11/M01 A3001 RMK A01 T01051009  RH  045%=      5-min Rain = 0
KAM3 170412Z 28013KT 11/M01 A3001 RMK A01 T01051009  RH  045%=      5-min Rain = 0
KAM3 170413Z 28013KT 11/M01 A3001 RMK A01 T01051009  RH  045%=      5-min Rain = 0
KAM3 170414Z 28013KT 11/M01 A3001 RMK A01 T01051009  RH  045%=      5-min Rain = 0
KAM3 170415Z 28014KT 11/M01 A3001 RMK A01 T01051010  RH  045%=      5-min Rain = 0
KAM3 170416Z 28013KT 11/M01 A3001 RMK A01 T01051010  RH  045%=      5-min Rain = 0
KAM3 170417Z 28013KT 11/M01 A3001 RMK A01 T01051010  RH  045%=      5-min Rain = 0
KAM3 170418Z 28012KT 11/M01 A3001 RMK A01 T01051010  RH  045%=      5-min Rain = 0
KAM3 170419Z 28013KT 10/M01 A3001 RMK A01 T01041010  RH  045%=      5-min Rain = 0
KAM3 170420Z 28012KT 10/M01 A3002 RMK A01 T01041010  RH  045%=      5-min Rain = 0
KAM3 170421Z 29012KT 10/M01 A3002 RMK A01 T01031010  RH  045%=      5-min Rain = 0
KAM3 170422Z 29013KT 10/M01 A3002 RMK A01 T01031010  RH  045%=      5-min Rain = 0
KAM3 170423Z 29012KT 10/M01 A3002 RMK A01 T01031010  RH  045%=      5-min Rain = 0
KAM3 170424Z 28011KT 10/M01 A3002 RMK A01 T01011011  RH  046%=      5-min Rain = 0
KAM3 170425Z 29012KT 10/M01 A3002 RMK A01 T01011011  RH  046%=      5-min Rain = 0
KAM3 170426Z 28013KT 10/M01 A3002 RMK A01 T01011011  RH  046%=      5-min Rain = 0
KAM3 170427Z 29011KT 10/M01 A3002 RMK A01 T01011011  RH  046%=      5-min Rain = 0
KAM3 170428Z 29012KT 10/M01 A3002 RMK A01 T01011011  RH  046%=      5-min Rain = 0
KAM3 170429Z 29010KT 10/M01 A3002 RMK A01 T01011011  RH  046%=      5-min Rain = 0
KAM3 170430Z 29011KT 10/M01 A3002 RMK A01 T01011011  RH  046%=      5-min Rain = 0
KAM3 170431Z 29010KT 10/M01 A3002 RMK A01 T00991011  RH  046%=      5-min Rain = 0
KAM3 170432Z 29011KT 10/M01 A3003 RMK A01 T00981011  RH  046%=      5-min Rain = 0
KAM3 170433Z 29010KT 10/M01 A3003 RMK A01 T00971011  RH  047%=      5-min Rain = 0
KAM3 170434Z 29010KT 10/M01 A3003 RMK A01 T00961012  RH  047%=      5-min Rain = 0
KAM3 170435Z 29010KT 10/M01 A3003 RMK A01 T00961012  RH  047%=      5-min Rain = 0
KAM3 170436Z 28011KT 10/M01 A3003 RMK A01 T00961012  RH  047%=      5-min Rain = 0
KAM3 170437Z 29011G16KT 10/M01 A3003 RMK A01 T00971011  RH  047%=      5-min Rain = 0
KAM3 170438Z 29011KT 10/M01 A3003 RMK A01 T00981012  RH  046%=      5-min Rain = 0
KAM3 170439Z 29011KT 10/M01 A3003 RMK A01 T00981012  RH  046%=      5-min Rain = 0
KAM3 170440Z 29010KT 10/M01 A3003 RMK A01 T00971012  RH  046%=      5-min Rain = 0
KAM3 170441Z 28010KT 10/M01 A3003 RMK A01 T00961012  RH  047%=      5-min Rain = 0
KAM3 170442Z 28013KT 10/M01 A3003 RMK A01 T00971012  RH  047%=      5-min Rain = 0
KAM3 170443Z 28013KT 10/M01 A3003 RMK A01 T00991012  RH  046%=      5-min Rain = 0
KAM3 170444Z 28012KT 10/M01 A3003 RMK A01 T01011012  RH  045%=      5-min Rain = 0
KAM3 170445Z 28011KT 10/M01 A3003 RMK A01 T01021012  RH  045%=      5-min Rain = 0
KAM3 170446Z 28012KT 10/M01 A3003 RMK A01 T01021012  RH  045%=      5-min Rain = 0
KAM3 170447Z 28011KT 10/M01 A3004 RMK A01 T01031012  RH  045%=      5-min Rain = 0
KAM3 170448Z 28012KT 10/M01 A3004 RMK A01 T01021012  RH  045%=      5-min Rain = 0
KAM3 170449Z 28010KT 10/M01 A3004 RMK A01 T01021012  RH  045%=      5-min Rain = 0
KAM3 170450Z 28010G15KT 10/M01 A3004 RMK A01 T01011013  RH  045%=      5-min Rain = 0
KAM3 170451Z 28011KT 10/M01 A3004 RMK A01 T01001013  RH  045%=      5-min Rain = 0
KAM3 170452Z 28010KT 10/M01 A3004 RMK A01 T01001012  RH  045%=      5-min Rain = 0
KAM3 170453Z 29009KT 10/M01 A3004 RMK A01 T01001013  RH  045%=      5-min Rain = 0
KAM3 170454Z 29008KT 10/M01 A3004 RMK A01 T00991013  RH  046%=      5-min Rain = 0
KAM3 170455Z 29008KT 10/M01 A3004 RMK A01 T00971014  RH  046%=      5-min Rain = 0
KAM3 170456Z 29008KT 10/M01 A3004 RMK A01 T00961013  RH  046%=      5-min Rain = 0
KAM3 170457Z 30009KT 10/M01 A3004 RMK A01 T00951014  RH  047%=      5-min Rain = 0
KAM3 170458Z 30007KT 09/M01 A3004 RMK A01 T00941013  RH  047%=      5-min Rain = 0
KAM3 170459Z 30007KT 09/M01 A3004 RMK A01 T00941014  RH  047%=      5-min Rain = 0
KAM3 170500Z 31007KT 09/M01 A3005 RMK A01 T00921014  RH  047%=      5-min Rain = 0
KAM3 170501Z 31006KT 09/M02 A3005 RMK A01 T00901015  RH  048%=      5-min Rain = 0
KAM3 170502Z 33006KT 09/M02 A3005 RMK A01 T00871016  RH  048%=      5-min Rain = 0
KAM3 170503Z 34007KT 09/M02 A3005 RMK A01 T00851016  RH  049%=      5-min Rain = 0
KAM3 170504Z 34007KT 08/M02 A3005 RMK A01 T00831016  RH  049%=      5-min Rain = 0
KAM3 170505Z 35006KT 08/M02 A3005 RMK A01 T00811017  RH  050%=      5-min Rain = 0
KAM3 170506Z 01007KT 08/M02 A3005 RMK A01 T00781018  RH  051%=      5-min Rain = 0
KAM3 170507Z 01007KT 07/M02 A3005 RMK A01 T00741019  RH  051%=      5-min Rain = 0
KAM3 170508Z 01008KT 07/M02 A3005 RMK A01 T00721019  RH  052%=      5-min Rain = 0
KAM3 170509Z 01008KT 07/M02 A3005 RMK A01 T00711017  RH  053%=      5-min Rain = 0
KAM3 170510Z 01009KT 07/M02 A3005 RMK A01 T00701017  RH  054%=      5-min Rain = 0
KAM3 170511Z 01009KT 07/M02 A3005 RMK A01 T00691018  RH  054%=      5-min Rain = 0
KAM3 170512Z 02008KT 07/M02 A3005 RMK A01 T00671018  RH  054%=      5-min Rain = 0
KAM3 170513Z 02008KT 07/M02 A3006 RMK A01 T00661019  RH  055%=      5-min Rain = 0
KAM3 170514Z 02008KT 06/M02 A3006 RMK A01 T00641019  RH  055%=      5-min Rain = 0
KAM3 170515Z 02007KT 06/M02 A3006 RMK A01 T00631020  RH  055%=      5-min Rain = 0
KAM3 170516Z 02007KT 06/M02 A3006 RMK A01 T00621019  RH  056%=      5-min Rain = 0
KAM3 170517Z 02007KT 06/M02 A3006 RMK A01 T00621020  RH  056%=      5-min Rain = 0
KAM3 170518Z 01007KT 06/M02 A3006 RMK A01 T00611020  RH  056%=      5-min Rain = 0
KAM3 170519Z 01007KT 06/M02 A3006 RMK A01 T00591022  RH  056%=      5-min Rain = 0
KAM3 170520Z 01007KT 06/M02 A3006 RMK A01 T00581021  RH  057%=      5-min Rain = 0
KAM3 170521Z 01007KT 06/M02 A3006 RMK A01 T00581021  RH  057%=      5-min Rain = 0
KAM3 170522Z 01007KT 06/M02 A3006 RMK A01 T00591019  RH  057%=      5-min Rain = 0
KAM3 170523Z 01007KT 06/M02 A3006 RMK A01 T00601019  RH  057%=      5-min Rain = 0
KAM3 170524Z 00007KT 06/M02 A3006 RMK A01 T00611019  RH  057%=      5-min Rain = 0
KAM3 170525Z 00007KT 06/M02 A3006 RMK A01 T00621019  RH  056%=      5-min Rain = 0
KAM3 170526Z 00007KT 06/M02 A3007 RMK A01 T00621019  RH  056%=      5-min Rain = 0
KAM3 170527Z 00007KT 06/M02 A3007 RMK A01 T00621019  RH  056%=      5-min Rain = 0
KAM3 170528Z 36008KT 06/M02 A3007 RMK A01 T00631018  RH  056%=      5-min Rain = 0
KAM3 170529Z 00008KT 06/M02 A3007 RMK A01 T00631019  RH  056%=      5-min Rain = 0
KAM3 170530Z 35008KT 06/M02 A3007 RMK A01 T00621020  RH  056%=      5-min Rain = 0
KAM3 170531Z 36007KT 06/M02 A3007 RMK A01 T00611020  RH  056%=      5-min Rain = 0
KAM3 170532Z 35006KT 06/M02 A3007 RMK A01 T00601021  RH  056%=      5-min Rain = 0
KAM3 170533Z 00006KT 06/M02 A3007 RMK A01 T00601019  RH  057%=      5-min Rain = 0
KAM3 170534Z 36006KT 06/M02 A3007 RMK A01 T00611019  RH  056%=      5-min Rain = 0
KAM3 170535Z 01006KT 06/M02 A3007 RMK A01 T00611020  RH  056%=      5-min Rain = 0
KAM3 170536Z 01005KT 06/M02 A3007 RMK A01 T00611019  RH  056%=      5-min Rain = 0
KAM3 170537Z 00005KT 06/M02 A3007 RMK A01 T00631018  RH  056%=      5-min Rain = 0
KAM3 170538Z 01005KT 06/M02 A3007 RMK A01 T00641017  RH  056%=      5-min Rain = 0
KAM3 170539Z 02005KT 07/M02 A3007 RMK A01 T00661017  RH  055%=      5-min Rain = 0
KAM3 170540Z 03005KT 07/M02 A3007 RMK A01 T00651020  RH  055%=      5-min Rain = 0
KAM3 170541Z 03005KT 06/M02 A3007 RMK A01 T00621023  RH  055%=      5-min Rain = 0
KAM3 170542Z 03006KT 06/M02 A3007 RMK A01 T00591024  RH  055%=      5-min Rain = 0
KAM3 170543Z 02008KT 05/M03 A3007 RMK A01 T00541027  RH  056%=      5-min Rain = 0
KAM3 170544Z 02007KT 05/M03 A3007 RMK A01 T00501027  RH  058%=      5-min Rain = 0
KAM3 170545Z 02008KT 05/M03 A3007 RMK A01 T00481026  RH  059%=      5-min Rain = 0
KAM3 170546Z 02008KT 05/M03 A3007 RMK A01 T00451027  RH  060%=      5-min Rain = 0
KAM3 170547Z 03007KT 04/M03 A3007 RMK A01 T00431025  RH  061%=      5-min Rain = 0
KAM3 170548Z 04007KT 04/M02 A3007 RMK A01 T00431024  RH  062%=      5-min Rain = 0
KAM3 170549Z 05007KT 04/M03 A3007 RMK A01 T00411025  RH  062%=      5-min Rain = 0
KAM3 170550Z 05007KT 04/M02 A3007 RMK A01 T00391024  RH  064%=      5-min Rain = 0
KAM3 170551Z 05006KT 04/M02 A3008 RMK A01 T00361022  RH  066%=      5-min Rain = 0
KAM3 170552Z 04008KT 03/M02 A3008 RMK A01 T00341021  RH  068%=      5-min Rain = 0
KAM3 170553Z 04011KT 03/M02 A3008 RMK A01 T00311021  RH  069%=      5-min Rain = 0
KAM3 170554Z 05012KT 03/M02 A3008 RMK A01 T00291018  RH  071%=      5-min Rain = 0
KAM3 170555Z 04010KT 03/M02 A3008 RMK A01 T00281016  RH  073%=      5-min Rain = 0
KAM3 170556Z 04009KT 03/M02 A3008 RMK A01 T00271015  RH  074%=      5-min Rain = 0
KAM3 170557Z 04009KT 03/M02 A3008 RMK A01 T00261016  RH  074%=      5-min Rain = 0
KAM3 170558Z 04009KT 02/M02 A3008 RMK A01 T00241016  RH  075%=      5-min Rain = 0
KAM3 170559Z 05009KT 02/M02 A3008 RMK A01 T00231015  RH  076%=      5-min Rain = 0

Page generated in 0.0696 seconds.